La mezza di Genova
17 Aprile 2011 - Genova
Pett Ord. Arrivo M/F Arr. Cat Cognome Nome S Anno Naz Società Cat 1 Tempo Finale
5 1 1 1 KIMUTAI KOECH JOSPAHT M 1982 KEN ATL. RECANATI SM 1:05:46
10 2 2 1 RADOUAN HAKIM M 1974 MAR ATL. CASONE NOCETO MM35 1:05:47
1 3 3 2 ZAID ISSAM M 1984 MAR POL. ROCCO SCOTELLARO MT SM 1:05:49
7 4 4 2 KHELIFI MEHDI M 1975 TUN ATLETICA AMATORI ACQUAVIVA BARI MM35 1:05:50
9 5 5 1 GHALLAB KHALID M 1985 TUN GRUPPO CITTA' DI GENOVA TM 1:08:29
4 6 6 3 CONCAS SALVATORE M 1981 ITA CAMBIASO RISSO RUNNING TEAM GE SM 1:09:44
11 7 7 1 BRIGNONE VALERIO M 1967 ITA CAMBIASO RISSO RUNNING TEAM GE MM40 1:09:44
16 8 1 1 IZEM HAFIDA F 1979 ITA REGGIO EVENT'S SF 1:11:59
15 9 8 4 ORRU' GIOVANNI M 1986 ITA ASD PODISTICA PERALTO GENOVA SM 1:13:15
8 10 9 2 ZENUCCHI EMANUEL M 1969 ITA GRUPPO CITTA' DI GENOVA MM40 1:13:44
569 11 10 3 ROSSI RODOLFO M 1974 ITA GRUPPO CITTA' DI GENOVA MM35 1:13:47
1276 12 11 2 RAMORINO CORRADO M 1981 ITA ATLETICA VARAZZE TM 1:14:27
1448 13 12 3 NEFKENS RUUD M 1977 NED AV CIFLA TM 1:15:10
2 14 2 1 QUAGLIA EMMA F 1980 ITA CUS GENOVA TF 1:15:24
856 15 13 4 POZZOLI ROBERTO M 1974 ITA G.S.A. COMETA MM35 1:15:45
23 16 14 3 ALIOTTA ANDREA M 1970 ITA GRUPPO CITTA' DI GENOVA MM40 1:16:28
389 17 15 4 DAGNINO EMILIANO M 1971 ITA ATLETICA VARAZZE MM40 1:16:28
22 18 16 1 RAMPA ENRICO M 1966 ITA CAMBIASO RISSO RUNNING TEAM GE MM45 1:16:35
19 19 17 4 PACE GIUSEPPE M 1978 ITA ASD PODISTICA PERALTO GENOVA TM 1:16:40
986 20 18 5 PENSA ALESSANDRO M 1975 ITA PODISTI DEL GOLFO PARADISO MM35 1:17:00
1479 21 19 5 COZZANI DAVIDE M 1971 ITA ATLETICA FRECCE ZENA MM40 1:17:02
675 22 20 6 SCAMARCIA ENZO M 1969 ITA ASD ERGUS MM40 1:17:07
642 23 21 7 VERNOCCHI STEFANO M 1970 ITA MARATONETI GENOVESI MM40 1:18:11
322 24 22 1 AGOSTINO GIULIANO M 1960 ITA DELTA SPEDIZIONI MM50 1:18:19
1298 25 23 5 REPETTO SILVANO M 1977 ITA ASD PODISTICA VALPOLCEVERA TM 1:18:26
17 26 24 2 PONTEVOLPE NINO M 1962 ITA GRUPPO CITTA' DI GENOVA MM45 1:18:28
21 27 25 6 CARTA MAURIZIO M 1978 ITA ASD PODISTICA PERALTO GENOVA TM 1:18:36
303 28 26 8 PREZIOSA MASSIMO M 1967 ITA ROAD RUNNERS CLUB MILANO MM40 1:18:48
1198 29 27 6 RONZITTI NICOLA M 1972 ITA DELTA SPEDIZIONI MM35 1:19:10
671 30 28 3 FRACCHIA GILBERTO M 1966 ITA ATL. RUN FINALE LIGURE MM45 1:19:10
13 31 3 2 ROBAUDO GIORGIA F 1984 ITA A.S.D.  C.U.S. GENOVA SF 1:19:10
14 32 4 3 RUDASSO VIVIANA F 1976 ITA GRUPPO CITTA' DI GENOVA SF 1:19:37
1140 33 29 7 SIPOLINO GABRIELE M 1975 ITA G.S.D. SAI  FRECCE BIANCHE POD MM35 1:20:03
524 34 30 4 MAGNANI PAOLO M 1962 ITA CAMBIASO RISSO RUNNING TEAM GE MM45 1:20:04
693 35 31 2 BENVENUTO ANTONIO M 1961 ITA U.S. MAURINA OLIO CARLI MM50 1:20:10
420 36 32 5 RONGAROLI GIANLUCA M 1966 ITA ATL. VIGNATE MM45 1:20:11
162 37 33 1 REPETTO EMANUELE M 1990 ITA CAMBIASO RISSO RUNNING TEAM GE PM 1:20:26
1033 38 34 9 MIGLIO WALTER M 1968 ITA G.A.U. GIOVANI AMICI UNITI MM40 1:20:31
1470 39 35 6 RONDANINA VITTORIO M 1962 ITA USD OLIMPIA 1937 MM45 1:20:32
1411 40 36 7 COLOMBI FABIO M 1982 ITA G.S. COMUNALE S. OLCESE TM 1:20:37
909 41 37 5 DE RUDAS STEFANO M 1977 ITA GRUPPO CITTA' DI GENOVA SM 1:20:40
509 42 38 8 LIMBERTO FRANCESCO M 1976 ITA CANTU`ATLETICA MM35 1:20:48
695 43 39 10 GENTILE MASSIMO M 1968 ITA CAMBIASO RISSO RUNNING TEAM GE MM40 1:20:53
409 44 40 11 CAMONI DANIELE M 1968 ITA ATL. VIGNATE MM40 1:21:01
973 45 41 6 GRECCHI GIOVANNI M 1976 ITA DELTA SPEDIZIONI SM 1:21:02
377 46 42 12 VACCARI FERRUCCIO M 1970 ITA A. S. D. CADDESE MM40 1:21:04
339 47 43 13 CARTA GINO M 1969 ITA ATLETICA FRECCE ZENA MM40 1:21:11
921 48 44 8 TEBALDI MATTEO M 1981 ITA   TM 1:21:13
729 49 45 14 PERRELLA DANIELE M 1969 ITA MARATONETI DEL TIGULLIO MM40 1:21:20
791 50 46 9 KAMALICH ANDREA M 1977 ITA CUS PRO PATRIA MILANO TM 1:21:22
1213 51 47 2 UGHE' DIEGO RAFAEL M 1989 ITA A.S.D.  C.U.S. GENOVA PM 1:21:32
1450 52 5 4 HALDIMANN ANGELA F 1982 SUI   SF 1:21:34
715 53 48 9 GAZZOTTI MASSIMO M 1974 ITA ATL. CASTELNOVO MONTI MM35 1:22:05
1500 54 49 7 ROMAIRONE FABRIZIO M 1965 ITA ATLETICA RAPALLO MM45 1:22:15
1032 55 50 15 FEDI GIUSEPPE M 1971 ITA G.A.U. GIOVANI AMICI UNITI MM40 1:22:24
548 56 51 10 SILVI FILIPPO M 1984 ITA CAMBIASO RISSO RUNNING TEAM GE TM 1:22:26
25 57 6 1 BOSCHI ANNA F 1968 ITA CAMBIASO RISSO RUNNING TEAM GE MF40 1:22:30
1156 58 52 10 SCOPELLITI SANTO M 1975 ITA MARATONETI DEL TIGULLIO MM35 1:22:49
480 59 53 8 GORLERO LEONE M 1962 ITA U.S. MAURINA OLIO CARLI MM45 1:22:49
83 60 54 16 MARCHI RICCARDO M 1969 ITA G.S.D. SAI  FRECCE BIANCHE POD MM40 1:22:53
670 61 55 17 GIORDANO ERMANNO M 1967 ITA ATL. RUN FINALE LIGURE MM40 1:22:54
443 62 56 3 PISCOPO GENNARO M 1960 ITA G.S.R. FERRERO A.S.D. MM50 1:23:03
508 63 57 18 ROMANO RUGGERO M 1967 ITA ATHLETIC TEAM LARIO MM40 1:23:10
1038 64 58 19 FADDA GIANPAOLO M 1968 ITA ASD PODISTICA PERALTO GENOVA MM40 1:23:12
633 65 59 4 PEDRETTI DANILO M 1960 ITA MARATONETI GENOVESI MM50 1:23:16
142 66 60 11 CANEPA AGOSTINO M 1975 ITA PODISTICA MELE MM35 1:23:17
1004 67 61 12 BALBI STEFANO M 1974 ITA ATLETICA VALLE SCRIVIA MM35 1:23:18
1143 68 62 9 VENTURELLI FABIO M 1963 ITA G.S.D. SAI  FRECCE BIANCHE POD MM45 1:23:23
577 69 63 10 REPETTO STEFANO M 1963 ITA MULTEDO 1930 MM45 1:23:26
1328 70 64 7 TOMASSINI MARCELLO M 1963 ITA GENOA ATLETICA SM 1:23:35
1006 71 65 20 COSTA PIETRO M 1967 ITA GRUPPO CITTA' DI GENOVA MM40 1:23:37
160 72 66 13 DE FERRARI MASSIMO M 1973 ITA SISPORT GYM SEZIONE RUNNING MM35 1:23:39
126 73 67 1 DE PLANO LUIGI M 1956 ITA CAMBIASO RISSO RUNNING TEAM GE MM55 1:23:53
2891 74 68 11 TODARO FERDINANDO M 1962 ITA POL. CORNIGLIANO 79 DILETT. MM45 1:23:55
1495 75 69 11 MAINARDI FRANCESCO M 1978 ITA GS COMUNALE S.OLCESE TM 1:24:04
2899 76 70 2 BARRESI DOMENICO M 1953 ITA BASE RUNNING MM55 1:24:07
530 77 7 5 ANGOTTI KARIN F 1982 ITA ATLETICA ASSAGO SF 1:24:11
2285 78 71 1 - - M 2011 ITA   N/A 1:24:17
239 79 72 5 GENONI GIANBATTISTA M 1960 ITA ATL. SAN MARCO U.S. ACLI MM50 1:24:20
482 80 73 12 LUNARDI CLAUDIO M 1964 ITA UNIONE SPORTIVA CARAMAGNA MM45 1:24:22
1482 81 74 21 MIGLIORINI REMO M 1970 ITA MARATONETI DEL TIGULLIO MM40 1:24:28
316 82 75 13 MARASSO LANFRANCO M 1965 ITA S.S. TRIONFO LIGURE MM45 1:24:35
1325 83 76 22 COSTA GILBERTO M 1969 ITA ATLETICA VALLESCRIVIA MM40 1:24:46
832 84 77 14 GELATO PAOLO M 1974 ITA POD.TRANESE UNIONE INDUSTRIALE MM35 1:24:48
92 85 78 6 LASTRICO MARCO M 1961 ITA MULTEDO 1930 MM50 1:24:57
1254 86 79 7 MIRA D'ERCOLE ALESSANDRO M 1961 ITA A.S. AMATORI SPORT MM50 1:25:11
1279 87 80 3 PUGGIONI ANTONELLO M 1955 ITA DELTA SPEDIZIONI MM55 1:25:12
1168 88 81 12 DE MARIA FABIO M 1979 ITA G.S. C.S.I. MORBEGNO TM 1:25:13
323 89 82 23 RIVETTI ANTIMO M 1969 ITA DELTA SPEDIZIONI MM40 1:25:19
886 90 83 8 FORNONI PIERLUIGI M 1974 ITA POOL SOC.ATL.ALTA VALSERIANA SM 1:25:22
1074 91 84 14 MORA BORTOLO M 1966 ITA DELTA SPEDIZIONI MM45 1:25:22
1347 92 85 15 BASILE LUCA ARMANDO M 1973 ITA ASD PODISTICA PERALTO GENOVA MM35 1:25:45
319 93 86 24 MAGGIOLO ALBERTO M 1969 ITA CAMBIASO RISSO RUNNING TEAM GE MM40 1:25:51
533 94 87 13 CROSA STEFANO M 1985 ITA MARATONETI DEL TIGULLIO TM 1:25:56
573 95 88 9 TRAGGIAI GIULIANO M 1988 ITA GRUPPO CITTA' DI GENOVA SM 1:25:56
1267 96 89 14 SALINI LUIGI M 1986 ITA DELTA SPEDIZIONI TM 1:26:03
1103 97 90 8 BRUNETTI MAURO M 1961 ITA CAMBIASO RISSO RUNNING TEAM GE MM50 1:26:03
453 98 91 16 COLONGHI MASSIMILIANO M 1973 ITA ATLETICA BRESCIA MARATHON MM35 1:26:07
655 99 92 17 BARAGATTI STEFANO M 1974 ITA SISPORT GYM SEZIONE RUNNING MM35 1:26:09
794 100 93 15 BRUZZONE GIORGIO M 1963 ITA POL. CORNIGLIANO 79 DILETT. MM45 1:26:10
842 101 94 15 DE NEVI MARCO M 1983 ITA MARATONETI DEL TIGULLIO TM 1:26:12
1361 102 95 16 PIRAS OTTORINO M 1964 ITA DELTA SPEDIZIONI MM45 1:26:15
812 103 96 9 POLLA DANIEL NICOLAS M 1957 ITA POL. MEZZALUNA VILLANOVA ASTI MM50 1:26:23
940 104 97 18 REVELLI GIACOMO M 1975 ITA   MM35 1:26:29
773 105 98 19 BIANCARDI FILIPPO M 1973 ITA CAMBIASO RISSO RUNNING TEAM GE MM35 1:26:32
552 106 8 6 ANDOLINA SONIA F 1966 ITA GRUPPO CITTA' DI GENOVA SF 1:26:33
59 107 99 17 PERELLI MASSIMO M 1964 ITA G.S.D. K42 ROMA MM45 1:26:41
523 108 100 25 CARRARA ANDREA M 1970 ITA ATL. CRAL CREBERG MM40 1:26:42
922 109 101 16 QUINTINO FABIO M 1982 ITA CAMBIASO RISSO RUNNING TEAM GE TM 1:26:47
70 110 102 10 PIGA DANILO M 1970 ITA ASD PODISTICA PERALTO GENOVA SM 1:26:49
425 111 103 17 LOCHIS MARCO M 1977 ITA G.P. GORGONZOLA '88 TM 1:27:01
626 112 104 20 MOLTENI LUCA M 1976 ITA MARATONETI GENOVESI MM35 1:27:01
684 113 105 18 BERNARDI MARCO M 1984 ITA   TM 1:27:03
248 114 106 18 PORCILE FABIO M 1966 ITA MULTEDO 1930 MM45 1:27:11
299 115 107 19 LOSIO GIANLUCA M 1986 ITA ASD GP GARLASCHESE TM 1:27:14
576 116 108 26 PELLONI PAOLO M 1971 ITA CAMBIASO RISSO RUNNING TEAM GE MM40 1:27:14
30 117 9 7 MARTINELLI SARAH F 1981 ITA G.P. QUADRIFOGLIO SF 1:27:17
1285 118 10 1 PAPAGNA LAURA F 1991 ITA CUS GENOVA PF 1:27:27
106 119 109 20 GUIDI SAMUELE M 1980 ITA   TM 1:27:32
338 120 110 21 MANGIARINO GIORGIO M 1973 ITA ATLETICA CANAVESANA MM35 1:27:32
1056 121 111 19 SARTO ANDREA M 1962 ITA ATLETICA FRECCE ZENA MM45 1:27:33
24 122 11 2 BERTAMINO MARTA F 1985 ITA CAMBIASO RISSO RUNNING TEAM GE TF 1:27:35
908 123 112 10 PIOMBO SERGIO M 1961 ITA ATLETICA VARAZZE MM50 1:27:36
1053 124 113 20 PENSIERO MIRKO M 1964 ITA ATLETICA FRECCE ZENA MM45 1:27:41
611 125 114 11 CORSI NINO M 1959 ITA MARATONETI GENOVESI MM50 1:27:44
1316 126 115 21 SAPORITI LUCA M 1978 ITA ATLETICA 2 PERLE TM 1:27:56
604 127 116 27 BALDINI ALESSANDRO M 1968 ITA MARATONETI GENOVESI MM40 1:27:56
723 128 117 12 CONTI RENATO M 1957 ITA GS AVIS TREVIGLIO G.BRUSAFERRI MM50 1:28:07
929 129 118 22 FRISON ALESSANDRO M 1977 ITA   TM 1:28:12
440 130 119 22 TONOLI GIUSEPPE M 1975 ITA EQUIPE RUNNING MM35 1:28:13
820 131 120 28 TERZI LUIGI M 1968 ITA POOL SOC.ATL.ALTA VALSERIANA MM40 1:28:14
464 132 121 21 TURCHIANO MICHELE M 1964 ITA U.S. MAURINA OLIO CARLI MM45 1:28:17
1109 133 122 4 CODELLA MARIO M 1954 ITA CAMBIASO RISSO RUNNING TEAM GE MM55 1:28:30
1165 134 123 22 POMA PAOLO M 1966 ITA RUNNERS BERGAMO MM45 1:28:34
280 135 124 23 POGGIO ALBERTO M 1976 ITA   MM35 1:28:35
1208 136 125 29 BONA STEFANO M 1971 ITA GRUPPO CITTA' DI GENOVA MM40 1:28:38
1218 137 126 24 DE PRATI PIER LUIGI M 1975 ITA   MM35 1:28:39
101 138 127 30 FRANCESCHINO LUCA M 1969 ITA G.S. COMUNALE S. OLCESE MM40 1:28:40
436 139 128 23 REBOA ALFREDO M 1980 ITA   TM 1:28:52
477 140 129 1 PILEGGI ANGELO M 1950 ITA POD.TRANESE UNIONE INDUSTRIALE MM60 1:28:56
821 141 130 13 MENCAGLIA ALBERTO M 1959 ITA G.S. COMUNALE S. OLCESE MM50 1:28:56
1021 142 131 31 BESSINI ALESSANDRO M 1968 ITA GRUPPO CITTA' DI GENOVA MM40 1:29:01
731 143 132 25 IENTILE FABIO M 1976 ITA PODISTICA VALPOLCEVERA MM35 1:29:04
1446 144 133 11 BONELLO ROBERTO M 1967 ITA GRUPPO CITTA' DI GENOVA SM 1:29:05
811 145 134 3 BALZANO FEDERICO M 1991 ITA CAMBIASO RISSO RUNNING TEAM GE PM 1:29:09
558 146 135 26 DE MARCO MARCO M 1974 ITA GRUPPO CITTA' DI GENOVA MM35 1:29:11
1062 147 136 23 ZADRA CLAUDIO M 1966 ITA   MM45 1:29:11
395 148 137 14 PALAMARA ANNUNZIATO M 1957 ITA SPORT PRO-MOTION MM50 1:29:13
394 149 138 1 PIANTA DAVIDE M 1989 ITA   - 1:29:17
512 150 139 5 PRETE CLAUDIO M 1955 ITA ATL. PAVESE MM55 1:29:21
737 151 140 12 BARTALI ALESSIO M 1982 ITA PODISTICA VALPOLCEVERA SM 1:29:21
398 152 141 24 PELIZZO ROBERTO M 1966 ITA RUNNER VARESE MM45 1:29:23
1428 153 142 2 - - M 2011 ITA   N/A 1:29:29
1146 154 143 24 DEAMBROGGI PAOLO EZIO LUIGI M 1978 ITA G.P. CARTOTECNICA PIEMONTESE A TM 1:29:44
726 155 144 32 LAZZARONE ANTONIO M 1967 ITA G.P. CARTOTECNICA PIEMONTESE A MM40 1:29:47
975 156 145 27 REBOTTARO CLAUDIO M 1974 ITA ATLETICA VALLE SCRIVIA MM35 1:29:48
1129 157 146 2 LUBRANO LUIGI M 1950 ITA ASD PODISTICA PERALTO GENOVA MM60 1:29:49
527 158 147 25 FILIPPINI MARINO M 1966 ITA MARATONETI DEL TIGULLIO MM45 1:29:50
520 159 148 33 AMBROGI MARTINO M 1967 ITA   MM40 1:29:52
648 160 149 34 TRAVERSO ALESSANDRO M 1969 ITA   MM40 1:29:55
536 161 150 26 BORZONE MAURO M 1966 ITA   MM45 1:29:58
1011 162 151 35 BIN FABIO M 1967 ITA CEDAS FIAT GRUPPO PODISMO MM40 1:30:13
934 163 152 25 SECCHI ANDREA M 1986 ITA   TM 1:30:13
65 164 153 28 VIGNOLO MASSIMILIANO M 1972 ITA   MM35 1:30:17
628 165 154 29 MORO GIOVANNI M 1975 ITA MARATONETI GENOVESI MM35 1:30:17
1247 166 155 15 PIZZO GIUSEPPE M 1961 ITA MARATONETI GENOVESI MM50 1:30:20
1420 167 156 36 DI STEFANO SILVIO M 1970 ITA   MM40 1:30:22
710 168 157 6 TIOZZO FABRIZIO M 1956 ITA G.S. VOLONTARI MORTARA MM55 1:30:23
1102 169 158 16 PUCCINI GIUSEPPE M 1961 ITA CAMBIASO RISSO RUNNING TEAM GE MM50 1:30:25
1371 170 159 30 SOLERA GIANNI M 1973 ITA A.S.D. VIGONECHECORRE MM35 1:30:25
297 171 160 7 GEMITI ANTONIO M 1954 ITA U.S. MAURINA OLIO CARLI MM55 1:30:27
1342 172 161 37 GUGLIELMONI ANDREA M 1970 ITA CAMBIASO RISSO RUNNING TEAM GE MM40 1:30:30
843 173 162 38 IACCARINO ANTONINO M 1970 ITA ASD CSAAS AMAT. ATL. SORRENTO MM40 1:30:43
1183 174 163 26 MUFFATTI RICCARDO M 1978 ITA POD.S.GIOV.A PIRO G.POLICASTRO TM 1:30:46
196 175 164 39 BERNARDI RENZO M 1971 ITA G.S. DUCOS MM40 1:30:46
831 176 165 31 FILIPPONE DAVIDE M 1973 ITA TURIN MARATHON MM35 1:30:47
1423 177 166 27 LIBERTI GIUSEPPE M 1966 ITA CAMBIASO RISSO RUNNING TEAM GE MM45 1:30:48
118 178 167 40 DELIPERI NICOLA M 1967 ITA G.P. ARREDAMENTI MAIANDI MM40 1:30:50
1311 179 168 27 RONCAGLIOLO FEDERICO M 1979 ITA ATLETICA 2 PERLE TM 1:30:51
41 180 169 28 SALA MARCO M 1966 ITA ATLETICA PALZOLA MM45 1:30:51
972 181 170 32 LO NOBILE YURI M 1976 ITA PODISTICA VALPOLCEVERA MM35 1:30:53
1070 182 171 29 DI MURO GIUSEPPE M 1962 ITA GRUPPO CITTA' DI GENOVA MM45 1:30:55
983 183 172 33 POSA GIACOMO M 1972 ITA A.S.D. BISCEGLIE RUNNING MM35 1:30:57
1000 184 173 34 GUASTI ROBERTO M 1974 ITA ASD POLISPORTIVA VIRTUS SESTRI MM35 1:30:59
988 185 174 13 TROMBACCIA STEFANO M 1972 ITA GRUPPO CITTA' DI GENOVA SM 1:31:06
251 186 175 28 MANUGUERRA FRANCESCO M 1981 ITA GRUPPO S.EUSEBIO TM 1:31:09
920 187 176 29 FIACCHI PAOLO M 1981 ITA   TM 1:31:09
999 188 177 35 PIRAINO MARCO M 1973 ITA G.A.U. GIOVANI AMICI UNITI MM35 1:31:09
283 189 178 36 MENCARELLI GIACOMO M 1972 ITA REGGIO EVENT'S MM35 1:31:10
1132 190 179 1 CAMOIANO ANTONIO M 1946 ITA DELTA SPEDIZIONI MM65 1:31:11
1367 191 180 30 BARBERO BELLI MATTIA M 1981 ITA   TM 1:31:11
352 192 181 3 VIGNA ALDO M 1947 ITA G.S.D. BRANCALEONE  ASTI MM60 1:31:12
1330 193 182 14 CAMMARATA GIUSEPPE M 1959 ITA GENOA ATLETICA SM 1:31:13
923 194 183 31 CATINO GIANCARLO M 1981 ITA BISCEGLIE RUNNING TM 1:31:14
2895 195 184 3 - - M 2011 ITA   N/A 1:31:14
567 196 185 8 CAMPAGNOLI SALVATORE M 1956 ITA CAMBIASO RISSO RUNNING TEAM GE MM55 1:31:16
1461 197 186 4 RATTO ATTILIO M 1951 ITA   MM60 1:31:26
201 198 187 41 NOCENTINI MARCO M 1967 ITA A.S.C.D. SILVANO FEDI MM40 1:31:32
1101 199 188 17 BERTOLINI GIANFRANCO M 1961 ITA CAMBIASO RISSO RUNNING TEAM GE MM50 1:31:35
687 200 189 30 CAMPORA FRANCO M 1963 ITA PODISTICA VALPOLCEVERA MM45 1:31:38
1249 201 12 1 BROGGI ROSA F 1964 ITA MARATONETI GENOVESI MF45 1:31:40
1248 202 190 31 ALBERTONI DANILO M 1964 ITA MARATONETI GENOVESI MM45 1:31:41
1317 203 191 42 TOALDO GIANPAOLO M 1969 ITA ATLETICA 2 PERLE MM40 1:31:41
686 204 192 43 BOCCARDO GIANLUCA M 1967 ITA PODISTICA VALPOLCEVERA MM40 1:31:41
1170 205 193 32 CANFORA MAURIZIO M 1965 ITA   MM45 1:31:43
479 206 194 33 DE LOS SANTOS ADEMAR AUGUSTO M 1966 ITA G.S.D. BRANCALEONE  ASTI MM45 1:31:43
105 207 195 44 TRIPALDI ANTONIO M 1967 ITA ATHLETIC PROJECT SAVONA MM40 1:31:48
987 208 196 15 DENISE FABIO M 1975 ITA GRUPPO CITTA' DI GENOVA SM 1:31:53
305 209 197 32 AIME MARCO M 1977 ITA G.S.D.VALTANARO TM 1:31:55
875 210 198 5 FONTANA ROBERTO M 1948 ITA U.S. MAURINA OLIO CARLI MM60 1:32:00
583 211 199 34 BAGOSSI MASSIMO M 1962 ITA DELTA SPEDIZIONI MM45 1:32:01
814 212 200 35 VEGETTI PIERLUIGI M 1966 ITA EUROATLETICA 2002 MM45 1:32:02
792 213 201 18 ESPOSITO GERARDO M 1958 ITA POL. CORNIGLIANO 79 DILETT. MM50 1:32:02
525 214 202 37 MONTISCI PAOLO M 1973 ITA   MM35 1:32:05
1358 215 203 45 SEGALERBA STEFANO M 1968 ITA MARATONETI GENOVESI MM40 1:32:06
1314 216 204 9 ANGHINOLFI MARCO M 1954 ITA ATLETICA 2 PERLE MM55 1:32:07
329 217 205 36 GROSSO SERGIO M 1965 ITA G.S. VALLEMME MM45 1:32:09
516 218 206 37 BORGONI VITTORIO M 1963 ITA A.S.D.DRAGONERO MM45 1:32:10
1250 219 207 38 DONATO DAVIDE M 1965 ITA CAMBIASO RISSO RUNNING TEAM GE MM45 1:32:10
295 220 208 38 GHIRIMOLDI CARLO M 1975 ITA TOMMY SPORT- LA VALLE DEL LURA MM35 1:32:11
531 221 209 33 PIGHETTI LORENZO M 1984 ITA ATLETICA BRESCIA MARATHON TM 1:32:13
513 222 210 46 MAINENTE ANDREA M 1969 ITA G.S. ZELOFORAMAGNO MM40 1:32:15
538 223 211 39 GATTAVARA GIUSEPPE M 1963 ITA ASD PODISTICA PERALTO GENOVA MM45 1:32:16
216 224 212 40 PATERNICH ROBERTO M 1964 ITA ASD POLISPORTIVA VIRTUS SESTRI MM45 1:32:18
1312 225 213 39 SARTORI LUCA M 1974 ITA ATLETICA 2 PERLE MM35 1:32:24
1308 226 13 1 CACCIALANZA ELGA F 1974 ITA ATLETICA 2 PERLE MF35 1:32:24
383 227 214 41 SIRI RENZO M 1965 ITA ATL. OVADESE ORMIG MM45 1:32:26
312 228 215 42 ORCIUOLI FABRIZIO M 1966 ITA ASD PODISTICA PERALTO GENOVA MM45 1:32:29
766 229 216 40 ZANETTI MASSIMO M 1973 ITA G.S. SAN MARTINO MM35 1:32:31
91 230 217 19 GESTRO AMBROGIO M 1959 ITA MULTEDO 1930 MM50 1:32:32
1184 231 218 47 SIRCHIA EDOARDO M 1970 ITA ATL. PAVESE MM40 1:32:34
1372 232 219 43 CANEPA BRUNO M 1965 ITA PODISTICA MELE MM45 1:32:34
1390 233 220 10 NEGRI EMANUELE M 1954 ITA ASD PODISTICA PERALTO GENOVA MM55 1:32:37
467 234 221 41 MELOTTO ALESSANDRO M 1975 ITA PODISTICA ARONA MM35 1:32:42
1301 235 222 16 PASTORINO ROBERTO M 1960 ITA GRUPPO CITTA' DI GENOVA SM 1:32:43
209 236 223 48 BELLA ROBERTO M 1968 ITA G.P. CASTIGLIONESI MM40 1:32:44
528 237 224 44 BERGANTI MAURIZIO M 1963 ITA U.S. ACLI SCALO VOGHERA MM45 1:32:46
345 238 225 20 PICHETTO MASSIMO M 1961 ITA ASD PODISTICA PERALTO GENOVA MM50 1:32:50
1175 239 14 3 VICCARI DANIELA F 1977 ITA EUROATLETICA 2002 TF 1:32:51
1432 240 226 11 PICARELLI ARISTOFELE M 1954 ITA DELTA SPEDIZIONI MM55 1:32:54
1151 241 227 49 VITUCCI MICHELE M 1967 ITA ROAD RUNNERS CLUB MILANO MM40 1:32:55
337 242 228 45 MION MIRCO M 1964 ITA ATLETICA CANAVESANA MM45 1:32:56
1493 243 229 46 SCHIRRU GIOVANNI M 1965 ITA ASD ALBENGA RUNNERS MM45 1:32:58
1040 244 230 50 ASCANIO MAURIZIO M 1968 ITA CAMBIASO RISSO RUNNING TEAM GE MM40 1:32:58
76 245 231 21 REPETTO ENRICO M 1957 ITA CAMBIASO RISSO RUNNING TEAM GE MM50 1:33:03
418 246 232 6 COATI WALTER M 1951 ITA ATL. VIGNATE MM60 1:33:03
932 247 233 34 MASSONI FEDERICO M 1977 ITA   TM 1:33:05
793 248 234 51 CAGNA DANILO M 1969 ITA POL. CORNIGLIANO 79 DILETT. MM40 1:33:08
393 249 235 42 VASON JAMES M 1975 ITA PODISTICA ARONA MM35 1:33:09
493 250 236 43 MASSA FEDERICO M 1976 ITA PODISTICA MELE MM35 1:33:09
593 251 237 52 CHIESA DANIELE MARIA M 1970 ITA G.S. AVIS GAMBOLO' MM40 1:33:09
1292 252 238 22 GIORGI FRANCESCO M 1958 ITA   MM50 1:33:11
471 253 239 23 ROVATI DANIELE M 1960 ITA TEAM OTC COMO MM50 1:33:11
1359 254 240 44 PINZELLI FLAVIO M 1973 ITA CUS GENOVA MM35 1:33:13
1360 255 241 12 PANDUCCIO LUIGI M 1956 ITA CUS GENOVA MM55 1:33:14
1454 256 242 53 GIAPPINO ENRICO M 1971 ITA MEDIRUN CUS BERGAMO MM40 1:33:14
36 257 243 35 ALTAMURA ALESSANDRO M 1979 ITA   TM 1:33:17
562 258 244 24 MANGRAVITI GIUSEPPE M 1957 ITA GRUPPO CITTA' DI GENOVA MM50 1:33:19
656 259 245 45 GOSLINO ANDREA M 1975 ITA PODISTICA SAVONESE MM35 1:33:20
1228 260 246 46 BORTOLAI GIOVANNI M 1972 ITA GRUPPO CITTA' DI GENOVA MM35 1:33:23
1063 261 247 47 PARODI MARCO M 1965 ITA G.A.U. GIOVANI AMICI UNITI MM45 1:33:24
314 262 248 48 DE LEO MASSIMO M 1965 ITA ASD PODISTICA PERALTO GENOVA MM45 1:33:26
1241 263 15 2 REPETTO GABRIELLA F 1971 ITA PODISTICA MELE MF40 1:33:27
749 264 249 54 TILOCCA FILIPPO M 1970 ITA ATL. OVADESE ORMIG MM40 1:33:31
748 265 250 47 DEL PUNTA GABRIELE M 1975 ITA ATL. OVADESE ORMIG MM35 1:33:31
647 266 251 55 ODICINO PIERPAOLO M 1968 ITA   MM40 1:33:35
247 267 252 36 BARBIERO STEFANO M 1980 ITA   TM 1:33:37
1346 268 253 49 PELLEGRINI GIUSEPPE M 1965 ITA ASD PODISTICA PERALTO GENOVA MM45 1:33:41
650 269 254 50 ARNONE ANDREA M 1965 ITA MARTESANA CORSE MM45 1:33:41
644 270 255 13 ZANONI CLAUDIO M 1955 ITA MARATONETI GENOVESI MM55 1:33:49
612 271 256 7 CRAVIN GIULIO M 1948 ITA MARATONETI GENOVESI MM60 1:33:49
817 272 257 56 MORRETTA ROSARIO M 1970 ITA MEDIRUN CUS BERGAMO MM40 1:33:50
1059 273 258 51 GUAITAMACCHI LUCA M 1965 ITA G.P. AVIS PAVIA MM45 1:33:51
911 274 259 37 MUSELLA ALESSANDRO M 1984 ITA CAMBIASO RISSO RUNNING TEAM GE TM 1:33:52
534 275 260 14 PASSADORE FRANCESCO M 1956 ITA MARATONETI DEL TIGULLIO MM55 1:33:53
1362 276 261 52 MALINCONICO GIUSEPPE M 1962 ITA ASD PODISTICA PERALTO GENOVA MM45 1:33:56
863 277 262 38 FONTANESI ENRICO M 1986 ITA   TM 1:33:59
1379 278 263 57 GRONDONA PIETRO M 1969 ITA CAMBIASO RISSO RUNNING TEAM GE MM40 1:33:59
1477 279 264 53 BOERO PAOLO M 1965 ITA DELTA SPEDIZIONI MM45 1:34:00
638 280 265 15 SOLARI BRUNO M 1952 ITA MARATONETI GENOVESI MM55 1:34:01
302 281 266 25 D' AVANZO AGOSTINO M 1959 ITA SPORT PRO-MOTION MM50 1:34:04
1029 282 267 58 MONTI STEFANO M 1969 ITA   MM40 1:34:06
218 283 268 39 BONA ANTONIO M 1986 ITA   TM 1:34:07
1113 284 269 16 CUBEDDU LUCIO M 1954 ITA G.A.U. GIOVANI AMICI UNITI MM55 1:34:08
406 285 270 26 BIANCHI PIERO LADISLAO M 1960 ITA ATL. STRAMILANO MM50 1:34:11
1278 286 271 17 PERO ROBERTO M 1953 ITA AMICI DEL MOMBARONE MM55 1:34:14
1045 287 272 17 SORO LUCA M 1964 ITA GRUPPO CITTA' DI GENOVA SM 1:34:20
967 288 16 1 BOLOGNESI SILVIA F 1954 ITA CAMBIASO RISSO RUNNING TEAM GE MF55 1:34:21
260 289 273 59 MANCINO MICHELE M 1971 ITA CAMBIASO RISSO RUNNING TEAM GE MM40 1:34:22
325 290 274 48 TRAVERSO MATTEO M 1972 ITA ATLETICA VALLE SCRIVIA MM35 1:34:22
326 291 275 49 BONDANZA MASSIMO M 1972 ITA ATLETICA VALLE SCRIVIA MM35 1:34:23
1003 292 276 50 OLDRATI FRANCESCO M 1974 ITA SISPORT GYM SEZIONE RUNNING MM35 1:34:24
132 293 277 60 TONNARELLI ANDREA M 1971 ITA ASD PODISTICA PERALTO GENOVA MM40 1:34:26
697 294 278 40 GALIMBERTI GIANPIERO M 1977 ITA A.S. CANTURINA POL. S.MARCO TM 1:34:32
918 295 279 41 POLICASTRO LUCA M 1986 ITA   TM 1:34:33
740 296 280 42 BALMA PIERO M 1981 ITA   TM 1:34:33
753 297 281 43 NEVACHE ANDREA M 1977 ITA G.S.P. 80 POMARETTO TM 1:34:36
356 298 282 44 ARMINU LUCA M 1988 ITA A.S.D.  C.U.S. GENOVA TM 1:34:36
1387 299 283 54 RICCI LORENZO M 1963 ITA CAMBIASO RISSO RUNNING TEAM GE MM45 1:34:37
1459 300 284 55 DELLA CHA ANDREA M 1963 ITA GRUPPO CITTA' DI GENOVA MM45 1:34:39
1001 301 285 51 CARRARO ALBERTO M 1973 ITA ATL. OVADESE ORMIG MM35 1:34:44
296 302 286 61 GIUSSANI MASSIMILIANO M 1968 ITA G.S. MONTESTELLA MM40 1:34:46
1020 303 287 62 FERRARI STEFANO M 1969 ITA G.S.GALIMBERTI VIGILI FUOCO-MI MM40 1:34:48
1307 304 288 52 RATTO LUCA M 1972 ITA   MM35 1:34:50
1162 305 289 56 PESCE MARCO M 1964 ITA MARATONETI GENOVESI MM45 1:34:57
109 306 290 57 SCHIAFFINO GUIDO M 1964 ITA HAPPY RUNNER CLUB MM45 1:35:04
603 307 291 63 BACIGALUPO CHRISTIAN M 1971 ITA MARATONETI GENOVESI MM40 1:35:04
926 308 292 18 GIAUME ENRICO M 1981 ITA ATL. OVADESE ORMIG SM 1:35:06
233 309 293 27 COSSA FEDERICO MARIA M 1959 ITA RUNNING CENTER CLUB TORINO MM50 1:35:07
255 310 294 58 PORTUNATO ANDREA M 1966 ITA   MM45 1:35:09
785 311 295 64 GARGANI FABIO M 1971 ITA   MM40 1:35:10
1439 312 296 59 COSTA ENRICO M 1965 ITA GSD SAI  FRECCE BIANCHE ALESSANDRIA MM45 1:35:12
1131 313 297 8 BRUZZO PIERLUIGI M 1950 ITA PODISTICA VALPOLCEVERA MM60 1:35:13
1081 314 298 28 SANSONE CARMINE M 1961 ITA CEDAS FIAT GRUPPO PODISMO MM50 1:35:13
135 315 299 29 MIGLIARO LUIGINO M 1960 ITA MARATONETI DEL TIGULLIO MM50 1:35:13
100 316 300 65 RASO GUIDO M 1967 ITA GRUPPO CITTA' DI GENOVA MM40 1:35:17
813 317 301 66 ARTIACO ANDREA M 1971 ITA   MM40 1:35:20
739 318 302 45 PROTTI MARCO M 1982 ITA   TM 1:35:20
1080 319 303 30 VALLE MARIO M 1957 ITA PODISTICA MELE MM50 1:35:21
225 320 304 53 CALIGARA LORENZO M 1973 ITA PODISTICA ARONA MM35 1:35:25
851 321 305 60 PACE LEONARDO M 1964 ITA S.S. RUNNERS LOANO MM45 1:35:26
553 322 306 19 BENIGNI ADRIANO M 1956 ITA GRUPPO CITTA' DI GENOVA SM 1:35:33
249 323 307 67 PIOLA ETTORE M 1969 ITA POLISPORTIVA TORRILE MM40 1:35:36
757 324 308 20 SARDI NICOLA M 1975 ITA ATLETICA SALUZZO SM 1:35:37
1043 325 309 68 VAGALI CORRADO M 1967 ITA G.S. COMUNALE S. OLCESE MM40 1:35:38
779 326 310 31 TIZZANI PIERFELICE CARLO M 1961 ITA G.S.D. SAI  FRECCE BIANCHE POD MM50 1:35:38
864 327 311 54 LUNETTI ANDREA M 1973 ITA   MM35 1:35:39
1465 328 312 32 ALIOTO SAVERIO M 1960 ITA CUS GENOVA MM50 1:35:39
68 329 313 61 EVANGELISTI GIUSEPPE M 1964 ITA G.S. COMUNALE S. OLCESE MM45 1:35:40
1297 330 314 18 BARTOLINI GINO M 1952 ITA ASD PODISTICA VALPOLCEVERA MM55 1:35:47
422 331 315 69 ORNAGHI CRISTIANO M 1971 ITA ATL. VIGNATE MM40 1:35:49
665 332 316 62 COCITO STEFANO M 1965 ITA ASDGRUPPOPODISTI ALBESI MOKAFE MM45 1:35:54
289 333 317 55 BELLANTONE ROBERTO M 1972 ITA ATL. PAVESE MM35 1:35:55
371 334 318 70 MONTANARI ENRIQUE M 1969 ITA   MM40 1:35:56
1382 335 319 56 BIGI ROBERTO M 1972 ITA AZZURRA GARBAGNATE M.SE MM35 1:35:57
884 336 320 33 NASO DIEGO M 1958 ITA ASDGRUPPOPODISTI ALBESI MOKAFE MM50 1:35:58
744 337 321 71 BOTTINELLI MASSIMO M 1968 ITA ATL. TREVIGLIO MM40 1:36:00
997 338 322 57 CARTAGENOVA FEDERICO M 1973 ITA G.A.U. GIOVANI AMICI UNITI MM35 1:36:00
197 339 323 63 CORTINOVIS ALBERTO M 1964 ITA ATL. FLY FLOT MM45 1:36:02
978 340 324 58 PAGANO MARCO M 1975 ITA AVIS TORINO MM35 1:36:03
66 341 325 19 ARRICO ANTONIO M 1956 ITA CAMBIASO RISSO RUNNING TEAM GE MM55 1:36:07
584 342 326 64 MARINI SANDRO M 1964 ITA ASD PODISTICA PERALTO GENOVA MM45 1:36:08
375 343 327 59 RANABOLDO PAOLO M 1975 ITA ATL. SANTHIA' MM35 1:36:11
799 344 328 72 FACCO FABRIZIO M 1969 ITA POL. CORNIGLIANO 79 DILETT. MM40 1:36:11
379 345 329 60 DEBIAGGI GIOVANNI M 1972 ITA   MM35 1:36:17
378 346 330 61 LEGGENDA ANDREA M 1974 ITA   MM35 1:36:17
1188 347 17 2 CIAN RAFFAELLA F 1974 ITA GRUPPO CITTA' DI GENOVA MF35 1:36:18
275 348 331 21 SPATAFORA MATTEO M 1976 ITA ATLETICA FRECCE ZENA SM 1:36:19
977 349 332 62 MANTOVANI MARCO M 1974 ITA   MM35 1:36:23
344 350 333 73 SCALI RICCARDO M 1967 ITA MARATONETI GENOVESI MM40 1:36:24
388 351 334 20 CROCE ROBERTO M 1955 ITA ASD ALBENGA RUNNERS MM55 1:36:28
123 352 335 65 KOLP FRANCESCO M 1963 ITA G.A.U. GIOVANI AMICI UNITI MM45 1:36:28
358 353 336 34 PIERRO VINCENZO M 1960 ITA G.P. CARTOTECNICA PIEMONTESE A MM50 1:36:29
682 354 337 74 PECIS PAOLO M 1967 ITA G.S.D. SAI  FRECCE BIANCHE POD MM40 1:36:29
455 355 338 75 ZANI GIUSEPPE M 1971 ITA YOUNG RUNNING MM40 1:36:29
707 356 339 35 CASTELLI EUGENIO M 1957 ITA ATL. FRI.MA.S. MM50 1:36:30
134 357 340 21 GALATI ANTONIO M 1953 ITA G.S.D. BRANCALEONE  ASTI MM55 1:36:31
846 358 18 3 PELLEGRINI PARISI CLAUDIA F 1967 ITA ATLETICA ALTO GARDA E LEDRO MF40 1:36:32
619 359 341 66 GRECO ARMANDO M 1962 ITA MARATONETI GENOVESI MM45 1:36:35
504 360 342 76 GALBIATI ANDREA M 1969 ITA SESIA RUNNING MM40 1:36:37
807 361 343 77 FERRARIS EMANUELE M 1967 ITA CEDAS LANCIA VERRONE MM40 1:36:37
705 362 344 36 ROMANO MICHELE M 1960 ITA POD. S.MAURIZIO MM50 1:36:38
783 363 345 22 MATTEUCCI GIUSEPPE M 1956 ITA   MM55 1:36:41
1449 364 346 78 SORRENTINO PASQUALE M 1968 ITA MAARTONETI GENOVESI MM40 1:36:43
1300 365 347 22 MELCHIORRI FABIO M 1970 ITA GRUPPO CITTA' DI GENOVA SM 1:36:45
1490 366 348 67 DE BERNARDI EUGENIO M 1962 ITA RUNNING CLUB CESANESE MM45 1:36:46
166 367 349 63 SBAFFI FILIPPO M 1973 ITA CAMBIASO RISSO RUNNING TEAM GE MM35 1:36:52
848 368 350 68 VALENTE MAURIZIO M 1965 ITA ASD ALBENGA RUNNERS MM45 1:36:57
1419 369 351 64 VECCHIATILI ALESSIO M 1976 ITA ASD ALBENGA RUNNERS MM35 1:36:57
906 370 19 4 SAMMARTANO ELISA F 1981 ITA G.A.U. GIOVANI AMICI UNITI TF 1:37:00
664 371 20 3 ANTENUCCI ELVIRA F 1972 ITA ROAD RUNNERS CLUB MILANO MF35 1:37:00
1114 372 352 23 TICHOUDAD SLIMANE M 1954 ITA G.A.U. GIOVANI AMICI UNITI MM55 1:37:01
351 373 353 24 ABBATE ROSARIO M 1955 ITA S.S. TRIONFO LIGURE MM55 1:37:04
439 374 354 65 CUCCHI ANSELMO M 1976 ITA   MM35 1:37:06
564 375 355 66 PONTICIELLO IVANO M 1974 ITA ATL. OVADESE ORMIG MM35 1:37:07
953 376 21 4 GAGGERO ESTER F 1969 ITA PODISTICA VALPOLCEVERA MF40 1:37:09
1200 377 356 79 MANDICH IGOR M 1967 ITA CAMBIASO RISSO RUNNING TEAM GE MM40 1:37:11
891 378 357 46 FORLEO GIUSEPPE M 1978 ITA   TM 1:37:16
1395 379 358 80 VENIER LUCA M 1971 ITA DELTA SPEDIZIONI MM40 1:37:16
874 380 359 69 FATTOR FABRIZIO M 1966 ITA ASD ALBENGA RUNNERS MM45 1:37:17
566 381 360 70 PENNA EZIO M 1966 ITA GRUPPO CITTA' DI GENOVA MM45 1:37:17
257 382 361 71 ARGENTI GIORGIO M 1966 ITA   MM45 1:37:17
866 383 362 67 OPPEZZO MICHELE M 1973 ITA SESIA RUNNING MM35 1:37:17
1091 384 363 37 PIENOVI ROBERTO M 1959 ITA PODISTICA VALPOLCEVERA MM50 1:37:18
515 385 364 9 ROSA CARLO M 1951 ITA A.S.D.DRAGONERO MM60 1:37:19
622 386 22 4 MARCHET RITA F 1973 ITA MARATONETI GENOVESI MF35 1:37:25
1400 387 365 68 COSTA SIMONE M 1973 ITA MARATONETI GENOVESI MM35 1:37:25
419 388 366 72 ALBERGATI ANDREA M 1962 ITA ATL. VIGNATE MM45 1:37:26
1245 389 367 38 CHIGHINI FABIO M 1961 ITA G.S. COMUNALE S. OLCESE MM50 1:37:32
253 390 368 39 CECCHELANI LUCIANO M 1957 ITA   MM50 1:37:36
830 391 369 47 LANZA OMAR M 1978 ITA   TM 1:37:37
95 392 370 69 FERRANDO PIER PAOLO M 1976 ITA   MM35 1:37:38
136 393 371 25 BACIGALUPO BARTOLOMEO M 1952 ITA MARATONETI DEL TIGULLIO MM55 1:37:38
841 394 372 73 GARBIN MASSIMO M 1966 ITA MARATHON CLUB SEVESO MM45 1:37:39
1304 395 373 40 CHIARIELLO ANTONIO M 1959 ITA ATLETICA OVADESE ORMIG MM50 1:37:40
386 396 374 26 DERBA PAOLO M 1954 ITA SISPORT GYM SEZIONE RUNNING MM55 1:37:40
211 397 375 41 DE ASCENTIIS PAOLO M 1961 ITA   MM50 1:37:41
117 398 376 70 GARAVAGLIA MARCO M 1974 ITA ONDAVERDE ATHLETIC TEAM MM35 1:37:42
1319 399 377 81 MAGNANI GABRIELE M 1969 ITA ATLETICA RAPALLO MM40 1:37:44
617 400 378 82 GAMBINO FRANCESCO M 1967 ITA MARATONETI GENOVESI MM40 1:37:45
1286 401 23 5 CASISIANI INGONI CRISTINA F 1968 ITA CAMBIASO RISSO RUNNING TEAM GE MF40 1:37:47
694 402 24 6 CORNAGLIA CINZIA F 1970 ITA CAMBIASO RISSO RUNNING TEAM GE MF40 1:37:48
582 403 25 2 CIANCIOSI PAOLA F 1966 ITA CAMBIASO RISSO RUNNING TEAM GE MF45 1:37:48
1194 404 379 74 ANGELI ALESSANDRO M 1966 ITA   MM45 1:37:55
621 405 380 27 GUIDI MAURIZIO M 1956 ITA MARATONETI GENOVESI MM55 1:37:57
487 406 381 42 CECCARELLI PAOLO M 1960 ITA   MM50 1:38:01
741 407 382 71 CARLEVARINO GABRIELE M 1976 ITA   MM35 1:38:04
893 408 383 48 BALDO FRANCESCO M 1983 ITA PODISTICA SAVONESE TM 1:38:05
1189 409 384 75 ROSSONI UMBERTO M 1966 ITA RUNNERS BERGAMO MM45 1:38:07
1440 410 385 83 COSTA ALESSANDRO M 1968 ITA GSD SAI  FRECCE BIANCHE ALESSANDRIA MM40 1:38:08
1111 411 386 28 GENOCCHIO RENATO M 1954 ITA GRUPPO CITTA' DI GENOVA MM55 1:38:08
857 412 387 72 PERNECHELE PAOLO M 1975 ITA   MM35 1:38:09
575 413 388 23 ZERBINO DAVIDE M 1977 ITA GRUPPO CITTA' DI GENOVA SM 1:38:11
271 414 389 73 AGOSTINI GIULIANO M 1975 ITA   MM35 1:38:12
1437 415 390 84 LA SPINA PIETRO M 1967 ITA   MM40 1:38:18
1281 416 391 74 MASTROMARINO ANTONIO M 1974 ITA MARATONETI DEL TIGULLIO MM35 1:38:19
860 417 392 2 BAKMAZ BORIS M 1944 ITA ATLETICA SUSA MM65 1:38:19
228 418 393 49 FACCHI FABIO M 1979 ITA YOUNG RUNNING TM 1:38:20
1457 419 394 85 FIAMMENGHI DAVIDE M 1969 ITA   MM40 1:38:21
1381 420 395 76 GIUDICI PAOLO M 1964 ITA   MM45 1:38:22
62 421 396 29 VUONO CARLO M 1955 ITA G.P. SOLVAY SOLEXIS MM55 1:38:23
816 422 397 75 PAREA ALBERTO M 1974 ITA   MM35 1:38:29
342 423 398 30 BERRINO PIETRO M 1955 ITA   MM55 1:38:30
318 424 399 31 SALVIDIO GENNARO M 1955 ITA MARATONETI GENOVESI MM55 1:38:31
502 425 400 50 SOMENZINI ANGELO M 1977 ITA   TM 1:38:32
222 426 401 76 ASTORI NICOLA M 1974 ITA   MM35 1:38:32
1037 427 402 86 MAISTRELLO MARCO M 1971 ITA ASD PODISTICA PERALTO GENOVA MM40 1:38:36
1322 428 403 87 PICCONE STEFANO M 1967 ITA DELTA SPEDIZIONI MM40 1:38:38
1023 429 404 24 RISSO ALDO M 1968 ITA GRUPPO CITTA' DI GENOVA SM 1:38:39
935 430 405 51 RUSSO STEFANO M 1977 ITA G.A.U. GIOVANI AMICI UNITI TM 1:38:43
1075 431 406 77 PALLAVICINO MARCO M 1964 ITA MULTEDO 1930 MM45 1:38:44
885 432 407 52 PAVESI VITTORIO M 1977 ITA SPORTS CLUB MELEGNANO TM 1:38:49
728 433 408 77 CEI DANIELE M 1975 ITA DERTHONA ATLETICA MM35 1:38:51
98 434 409 88 MALASPINA MARCO M 1971 ITA   MM40 1:38:54
1258 435 410 32 GRIMALDI ANTONIO M 1956 ITA G.P. SOLVAY SOLEXIS MM55 1:38:56
370 436 411 78 ZUFFI MARCO M 1974 ITA   MM35 1:38:59
468 437 412 78 BOSSI MAURO M 1964 ITA ATL. SAN MARCO U.S. ACLI MM45 1:39:00
153 438 413 53 CERVETTO FEDERICO M 1981 ITA   TM 1:39:03
175 439 414 4 TORTI ALESSANDRO M 1989 ITA TURIN MARATHON PM 1:39:04
1429 440 415 43 SALVADOR JOSE' M 1958 ECU   MM50 1:39:06
659 441 416 79 GRANDINI STEFANO M 1964 ITA ASD ORTICA TEAM MM45 1:39:06
551 442 417 89 ALVINO GIAMPIERO M 1968 ITA GRUPPO CITTA' DI GENOVA MM40 1:39:09
1051 443 418 80 MACHI' FRANCESCO M 1965 ITA   MM45 1:39:17
1480 444 419 2 GAIS EMANUELE M 1991 ITA   - 1:39:19
462 445 420 79 MAY MICHAEL M 1973 GBR   MM35 1:39:20
133 446 421 81 TONNARELLI MAURIZIO M 1963 ITA ASD PODISTICA PERALTO GENOVA MM45 1:39:24
411 447 422 10 TOMASELLI LUIGI M 1951 ITA ATL. VIGNATE MM60 1:39:27
399 448 423 82 BERTOLINO GIUSEPPE M 1964 ITA A.S.D PAM MONDOVI-CHIUSA PESIO MM45 1:39:27
947 449 26 5 PARETO VANINA F 1975 ITA ATL. OVADESE ORMIG MF35 1:39:31
214 450 424 90 BRUSCHI GABRIELE M 1968 ITA ATL.UISP MARINA DI CARRARA MM40 1:39:32
1246 451 425 83 VECCHIONE RAFFAELE M 1962 ITA ATL. NOVESE MM45 1:39:34
756 452 426 25 GIRAUDO ROBERTO M 1977 ITA ATLETICA SALUZZO SM 1:39:37
755 453 427 26 AIMONE VITTORINO M 1975 ITA ATLETICA SALUZZO SM 1:39:38
937 454 428 54 CONFORTI ANGELO M 1979 ITA CAMBIASO RISSO RUNNING TEAM GE TM 1:39:38
1082 455 429 44 COSTANZA EPIFANIO M 1958 ITA AVIS TORINO MM50 1:39:38
156 456 430 91 DI GERONIMO MICHELE M 1968 ITA UISP VARESE MM40 1:39:39
1478 457 431 84 DIEGOLI VALTER M 1966 ITA LIBERO MM45 1:39:39
1174 458 432 80 BEOLDO ANDREA M 1976 ITA G.S. COMUNALE S. OLCESE MM35 1:39:39
1464 459 433 92 BAZZANO MARCO M 1968 ITA DELTA SPEDIZIONI MM40 1:39:40
82 460 434 93 PALMAS DAVIDE M 1970 ITA 3C (COMP. CREMONESE CORRIDORI) MM40 1:39:44
752 461 435 27 COSTABELLO LUCA M 1974 ITA G.S.P. 80 POMARETTO SM 1:39:45
522 462 436 85 CASSI GABRIELE M 1962 ITA U.S. ACLI SCALO VOGHERA MM45 1:39:47
571 463 437 28 SPALLAROSSA DANIELE M 1955 ITA GRUPPO CITTA' DI GENOVA SM 1:39:50
597 464 438 86 COLPANI MARCO M 1964 ITA G.A.P. SARONNO MM45 1:39:50
1014 465 439 94 PASQUA VINCENZO M 1971 ITA   MM40 1:39:54
1333 466 440 45 DAMONTE STEFANO M 1957 ITA GENOA ATLETICA MM50 1:39:54
651 467 27 5 RAIMONDI CHIARA F 1977 ITA DERTHONA ATLETICA TF 1:39:54
717 468 441 87 ALVA LEON JULIAN M 1966 ITA MARATONETI DEL TIGULLIO MM45 1:39:55
1313 469 442 88 TAVILLA STEFANO M 1965 ITA ATLETICA 2 PERLE MM45 1:39:55
139 470 443 46 RAMPONI ALBERTO M 1959 ITA PODISTICA MELE MM50 1:39:55
698 471 444 89 ANNONE ROBERTO M 1963 ITA G.S.D. SAI  FRECCE BIANCHE POD MM45 1:39:55
880 472 445 47 GARIBALDI GIUSEPPE M 1961 ITA U.S. MAURINA OLIO CARLI MM50 1:39:56
685 473 446 95 LOSI GIANMARIO M 1971 ITA G.P. CODOGNO 82 MM40 1:39:58
29 474 28 8 SINGARELLA PATRIZIA F 1986 ITA ATLETICA ARCOBALENO SAVONA SF 1:40:00
1093 475 447 48 FORTE BATTISTA M 1958 ITA ASD POLISPORTIVA VIRTUS SESTRI MM50 1:40:04
637 476 448 55 SICILIA STEFANO M 1983 ITA MARATONETI GENOVESI TM 1:40:05
1383 477 449 56 CANTORO ROBERTO M 1982 ITA   TM 1:40:07
1176 478 450 96 PORRO PAOLO M 1967 ITA CAMBIASO RISSO RUNNING TEAM GE MM40 1:40:08
1391 479 451 90 PIENOVI ANDREA M 1963 ITA LIBERO MM45 1:40:08
1386 480 452 91 VELA PAOLO M 1963 ITA MARATONETI GENOVESI MM45 1:40:09
849 481 453 97 TACCOGNA GEROLAMO M 1970 ITA ASD PODISTICA PERALTO GENOVA MM40 1:40:13
489 482 454 92 PARODI MASSIMO M 1965 ITA G.S. COMUNALE S. OLCESE MM45 1:40:15
128 483 455 33 GALEANO GIUSEPPE M 1954 ITA ASD PODISTICA PERALTO GENOVA MM55 1:40:17
810 484 456 81 GALIA GIANMATTEO M 1973 ITA ATLETICA GALLIATE MM35 1:40:17
780 485 457 49 MELAZZINI PAOLO M 1961 ITA 2002 MARATHON CLUB MM50 1:40:18
535 486 458 57 SEDRAN FABIO M 1981 ITA G.S. COMUNALE S. OLCESE TM 1:40:20
334 487 459 93 CHIOLO ROBERTO M 1964 ITA   MM45 1:40:21
256 488 460 82 TOMASIN FABIO M 1976 ITA   MM35 1:40:25
818 489 461 94 VALSANIA CARLO M 1965 ITA ASDGRUPPOPODISTI ALBESI MOKAFE MM45 1:40:26
996 490 462 83 VALENTE STEFANO M 1972 ITA   MM35 1:40:26
97 491 29 6 MAZZEI EMANUELA F 1977 ITA   TF 1:40:28
1336 492 463 29 GIUSTOLISI GIUSEPPE M 1962 ITA GENOA ATLETICA SM 1:40:29
2896 493 464 95 LUCCHIARI DANIELE M 1964 ITA G.S. AVIS GAMBOLO' MM45 1:40:30
1048 494 465 96 CHIEREGATO MAURIZIO M 1963 ITA ATL. NOVESE MM45 1:40:31
1240 495 466 97 QUARTINO MARCO M 1962 ITA PODISTICA MELE MM45 1:40:32
1186 496 467 50 PALAVRA VJEKOSLAV M 1959 BIH U.S. VIRTUS BINASCO ATL. MM50 1:40:33
1008 497 468 98 BUTERA MASSIMO M 1971 ITA TRIATHLON GENOVA MM40 1:40:34
1261 498 469 58 CABELLA DAVIDE SERGIO M 1980 ITA ATL. NOVESE TM 1:40:34
1036 499 470 99 BENNARDO FABIO M 1971 ITA ASD POLISPORTIVA VIRTUS SESTRI MM40 1:40:35
827 500 471 98 LOMBARDI SALVATORE M 1964 ITA LBM SPORT TEAM MM45 1:40:39
691 501 472 51 SAI MAURO M 1960 ITA ATLETICA CAIRO MM50 1:40:41
778 502 473 34 MARINIELLO VINCENZO M 1956 ITA ATLETICA CAIRO MM55 1:40:41
666 503 474 100 LEPRATTO ANGELO M 1971 ITA ATL. OVADESE ORMIG MM40 1:40:41
60 504 475 99 MOLIGNANI VALTER M 1962 ITA SPORT PRO-MOTION MM45 1:40:42
503 505 476 101 DE MATTEIS MASSIMILIANO M 1969 SUI   MM40 1:40:44
1118 506 477 3 BOLOGNESI ROBERTO M 1956 ITA ASD POLISPORTIVA CORNIGLIANO 79 - 1:40:44
52 507 478 102 PARODI ANDREA M 1967 ITA ASD ALBENGA RUNNERS MM40 1:40:45
605 508 479 52 BASSO SERGIO M 1957 ITA MARATONETI GENOVESI MM50 1:40:47
971 509 480 84 BELFIORE PIETRO M 1974 ITA GRUPPO CITTA' DI GENOVA MM35 1:40:47
291 510 481 103 DELUCCHI FRANCESCO M 1970 ITA CAMBIASO RISSO RUNNING TEAM GE MM40 1:40:48
646 511 482 53 GHISALBERTI MASSIMO M 1959 ITA SISPORT GYM SEZIONE RUNNING MM50 1:40:52
359 512 30 3 SHEA MOIRA F 1963 USA MARATONETI DEL TIGULLIO MF45 1:40:54
1474 513 483 100 DI PASQUALI GIUSEPPE M 1962 ITA ASD PODISTICA PERALTO GENOVA MM45 1:40:55
475 514 484 85 COMASCHI MARCO M 1974 ITA   MM35 1:40:57
976 515 485 86 PASTORINO LUCA M 1973 ITA ATLETICA VALLE SCRIVIA MM35 1:40:59
787 516 486 101 GUAGLIANO MARIO M 1963 ITA CLUB DEL MESDI' MM45 1:41:03
689 517 487 104 GIUSTO MARIO M 1967 ITA ATLETICA CAIRO MM40 1:41:08
258 518 488 59 ROLANDO MICHELE M 1980 ITA ATL. ALESSANDRIA TM 1:41:09
855 519 489 105 MILANO DARIO M 1971 ITA ASD Q.D.D. ATLETICA MONTI PISA MM40 1:41:10
279 520 490 60 ASSALINO MATTEO M 1981 ITA   TM 1:41:10
708 521 491 61 BESCHI STEFANO M 1981 ITA   TM 1:41:10
912 522 492 62 ADREVENO ANDREA M 1977 ITA   TM 1:41:11
852 523 493 54 MAZZUCHI FEDERICO M 1957 ITA SISPORT GYM SEZIONE RUNNING MM50 1:41:16
801 524 494 35 PRIMARIO SERGIO M 1953 ITA POL. CORNIGLIANO 79 DILETT. MM55 1:41:18
1026 525 495 106 BALDI SIMONE M 1971 ITA   MM40 1:41:19
754 526 31 7 ROBERTO IVANA F 1981 ITA G.S.P. 80 POMARETTO TF 1:41:19
1402 527 496 102 GNONE MATTEO M 1963 ITA CAMBIASO RISSO RUNNING TEAM GE MM45 1:41:21
315 528 497 87 MOGINI UMBERTO M 1973 ITA ASD PODISTICA PERALTO GENOVA MM35 1:41:23
1065 529 498 103 TORRE GIOVANNI M 1964 ITA ASD PODISTICA PERALTO GENOVA MM45 1:41:23
1339 530 499 107 CANEPA LUIGI M 1967 ITA GENOA ATLETICA MM40 1:41:28
746 531 500 55 PASSARIN FRANCO M 1958 ITA PODISTICA MEZZANESE MM50 1:41:31
90 532 501 104 RICCI DANIELE M 1963 ITA   MM45 1:41:31
1044 533 502 30 RUOCCO BRUNO M 1965 ITA GRUPPO CITTA' DI GENOVA SM 1:41:33
433 534 32 8 NOLI PAOLA F 1985 ITA   TF 1:41:34
1233 535 503 108 PEYLA ANDREA M 1968 ITA GRUPPO CITTA' DI GENOVA MM40 1:41:35
899 536 504 109 PENENGO GUIDO M 1967 ITA G.S.D. SAI  FRECCE BIANCHE POD MM40 1:41:37
916 537 505 63 BRISTOT MARCO GIUSEPPE M 1982 ITA   TM 1:41:40
331 538 506 88 PODESTA' EZIO M 1976 ITA   MM35 1:41:42
432 539 507 110 SCARSI GIANBATTISTA M 1969 ITA   MM40 1:41:45
900 540 508 64 MORI FEDERICO M 1978 ITA ATLETICA MANARA TM 1:41:45
557 541 509 31 COSTANTINI SIMONE M 1974 ITA GRUPPO CITTA' DI GENOVA SM 1:41:47
387 542 510 111 FRANZONI MARCO M 1970 ITA CAMBIASO RISSO RUNNING TEAM GE MM40 1:41:48
274 543 511 56 ALIBERTI ENRICO M 1961 ITA POLISPORT. NOVATLETICA CHIERI MM50 1:41:49
883 544 512 89 MIGLIETTI VITTORIO M 1973 ITA   MM35 1:41:52
1463 545 513 57 BARISIONE GIOVANNI M 1958 ITA MARATONETI GENOVESI MM50 1:41:54
269 546 514 65 BOGLIONI MARINO M 1978 ITA ATLETICA MARATHON ALMENNO S.S. TM 1:41:57
454 547 515 90 ZANI DARIO M 1972 ITA YOUNG RUNNING MM35 1:42:01
1447 548 516 112 VALENTINI WALTER M 1967 ITA ATLETICA ISOLA D'ELBA MM40 1:42:01
939 549 517 66 OLCESE CLAUDIO M 1981 ITA CAMBIASO RISSO RUNNING TEAM GE TM 1:42:01
1226 550 518 1 BALACCHINO MATTEO M 1992 ITA GRUPPO CITTA' DI GENOVA JM 1:42:01
772 551 519 113 PRATO PIERLUIGI M 1970 ITA G.P. SOLVAY SOLEXIS MM40 1:42:02
1094 552 520 58 TUMMARELLO VITO M 1959 ITA ASD POLISPORTIVA VIRTUS SESTRI MM50 1:42:03
1116 553 521 36 SASSOS ROBERTO M 1956 ITA MARATONETI GENOVESI MM55 1:42:04
1161 554 522 114 DAUDO SERGIO M 1971 ITA   MM40 1:42:06
862 555 33 7 REGHITTO NICOLETTA F 1968 ITA ATLETICA VALLE SCRIVIA MF40 1:42:11
861 556 523 105 ASTORRI LUIGI M 1966 ITA ATLETICA VALLE SCRIVIA MM45 1:42:12
629 557 524 37 MOTTA SANDRO M 1954 ITA MARATONETI GENOVESI MM55 1:42:13
770 558 525 38 AMBROSINI MAURIZIO M 1956 ITA   MM55 1:42:19
1473 559 526 106 FRUSCIONE MARCO M 1964 ITA   MM45 1:42:19
1086 560 527 59 DIANA CLAUDIO M 1957 ITA DELTA SPEDIZIONI MM50 1:42:19
859 561 528 115 ROSSI DARIO M 1969 ITA   MM40 1:42:19
1061 562 529 107 DI MARIANO VINCENZO M 1966 ITA   MM45 1:42:21
958 563 34 4 TUMAV RUTH F 1965 ITA ASD PODISTICA VALPOLCEVERA MF45 1:42:22
1095 564 530 60 SEMINO ALDO M 1961 ITA ASD POLISPORTIVA VIRTUS SESTRI MM50 1:42:23
478 565 531 67 COP RICCARDO M 1983 ITA TOMMY SPORT- LA VALLE DEL LURA TM 1:42:28
49 566 532 32 ZANONE MASSIMO M 1962 ITA GRUPPO CITTA' DI GENOVA SM 1:42:29
1426 567 533 116 ENNAS FEDERICO M 1971 ITA   MM40 1:42:30
1100 568 534 61 SOTGIU ALBERTINO M 1958 ITA MARATONETI GENOVESI MM50 1:42:30
541 569 535 108 PELLEGRINI ROBERTO M 1963 ITA ASD PODISTICA PERALTO GENOVA MM45 1:42:31
1202 570 536 91 IAPPINI MAURIZIO M 1973 ITA   MM35 1:42:32
1243 571 537 109 ALLOISIO MICHELE M 1964 ITA GSD EUROBIKE CREMOLINO MM45 1:42:32
790 572 538 110 RUVA VINCENZO M 1964 ITA CEDAS FIAT GRUPPO PODISMO MM45 1:42:33
306 573 539 62 MASCELLA VALTER M 1961 ITA   MM50 1:42:33
1203 574 540 111 MASSA STEFANO M 1965 ITA PODISTICA MELE MM45 1:42:34
919 575 541 68 CAVANNA MASSIMO M 1982 ITA   TM 1:42:35
1090 576 542 63 POLONI MARCO M 1961 ITA ATL. CINISELLO MM50 1:42:37
1216 577 543 69 MARINI CLAUDIO M 1980 ITA   TM 1:42:40
1130 578 544 11 CHIRICO COSIMO M 1947 ITA ASD PODISTICA PERALTO GENOVA MM60 1:42:41
1351 579 545 70 PROFUMO PAOLO M 1980 ITA   TM 1:42:41
634 580 546 112 PEPE ANTONIO M 1964 ITA MARATONETI GENOVESI MM45 1:42:43
641 581 547 12 VASSALLO CLAUDIO M 1951 ITA MARATONETI GENOVESI MM60 1:42:45
735 582 548 113 RISCAZZI MASSIMILIANO M 1966 ITA   MM45 1:42:47
245 583 549 64 BRUGNOLO FEDERICO M 1961 ITA   MM50 1:42:52
410 584 550 65 GRIFFINI GIOVANNI M 1960 ITA ATL. VIGNATE MM50 1:42:55
742 585 551 66 ANNACONDIA ANDREA M 1960 ITA POD. S.MAURIZIO MM50 1:42:55
414 586 552 114 CONCA PIERLUIGI M 1962 ITA ATL. VIGNATE MM45 1:42:56
1472 587 553 117 BOLZICCO PAOLO M 1970 ITA CUS UDINE MM40 1:42:58
635 588 554 115 RISSO VALERIO M 1962 ITA MARATONETI GENOVESI MM45 1:42:59
722 589 35 5 POLETTI MARZIA F 1965 ITA GS AVIS TREVIGLIO G.BRUSAFERRI MF45 1:43:02
640 590 555 116 TRIPODI GINO M 1963 ITA MARATONETI GENOVESI MM45 1:43:10
115 591 556 67 ORLANDINI GUIDO M 1958 ITA C.U.S. PARMA MM50 1:43:12
1273 592 557 39 AUDENINO GIUSEPPE M 1954 ITA A.S.D. VIGONECHECORRE MM55 1:43:14
37 593 558 92 BACUCCHI FRANCESCO M 1972 ITA PODISTICA SAVONESE MM35 1:43:15
1274 594 559 117 FERRERO EUGENIO M 1966 ITA A.S.D. VIGONECHECORRE MM45 1:43:15
34 595 560 71 TROTTI MATTEO M 1981 ITA   TM 1:43:16
925 596 561 33 SCOVAZZO TIZIANO M 1979 ITA GRUPPO CITTA' DI GENOVA SM 1:43:17
714 597 562 118 TOGNOTTI AUGUSTO M 1971 ITA   MM40 1:43:18
2898 598 563 34 TAVERNA MARCO M 1963 ITA GENOA ATLETICA SM 1:43:21
168 599 564 118 TORRE ANDREA TOMASO M 1964 ITA   MM45 1:43:22
1452 600 565 119 CALCATERRA GIUSEPPE M 1970 ITA SOCIETA'ATLETICA BELLINZAGO MM40 1:43:25
195 601 566 119 ATZENI STEFANO M 1962 ITA DUE PONTI SRL MM45 1:43:25
594 602 567 120 DIOTIS SIMONETTA MARCO PIETRO M 1968 ITA G.P. AVIS VIGEVANO-GRAVELLONA MM40 1:43:28
1389 603 568 68 AGROSI PASQUALE M 1958 ITA ATLETICA FRECCE ZENA MM50 1:43:29
367 604 569 93 RIPAMONTI MASSIMILIANO M 1972 ITA G.S. MONTESTELLA MM35 1:43:32
1303 605 570 13 BELLONI GIORGIO M 1950 ITA ATLETICA OVADESE ORMIG MM60 1:43:33
1425 606 571 94 GENOVESI GUIDO M 1974 ITA   MM35 1:43:34
954 607 36 6 BELLINI PAOLA F 1965 ITA GRUPPO CITTA' DI GENOVA MF45 1:43:37
1009 608 572 121 SCARCELLA LUCIANO M 1969 ITA DELTA SPEDIZIONI MM40 1:43:37
680 609 573 69 MARIANI BRUNO M 1961 ITA   MM50 1:43:40
1166 610 574 95 GIARDINA SALVATORE M 1972 ITA A.S.D. TRACK CLUB MASTER CL MM35 1:43:40
140 611 575 72 PODDIGHE ANDREA M 1977 ITA SISPORT GYM SEZIONE RUNNING TM 1:43:44
957 612 37 7 MEIRANA LUISA F 1965 ITA PODISTICA VALPOLCEVERA MF45 1:43:45
823 613 576 73 CARBONE MICHELE M 1984 ITA   TM 1:43:48
914 614 577 74 DE ANDREIS PAOLO M 1980 ITA   TM 1:43:48
1266 615 578 122 CERAVOLO ALESSANDRO M 1971 ITA ATHLETIC CLUB 96 AE SPA MM40 1:43:50
282 616 579 123 CAVIGLIA LUCA M 1971 ITA CAMBIASO RISSO RUNNING TEAM GE MM40 1:43:50
879 617 580 96 RADAELLI FRANCESCO M 1976 ITA   MM35 1:43:50
1005 618 581 35 GHIANI SALVATORE M 1973 ITA POL GONONE DORGALI SM 1:43:51
86 619 582 120 POLLERI DAMIANO M 1964 ITA CAMBIASO RISSO RUNNING TEAM GE MM45 1:43:52
183 620 583 124 MOLINO NICOLA M 1970 ITA   MM40 1:43:53
1034 621 584 125 TACCHINI LUCA M 1971 ITA GAU MM40 1:43:53
747 622 38 6 WILLIAMS NOLA JANE F 1976 GBR ATLETICA VARAZZE MF35 1:43:53
178 623 585 121 AMICO ANTONINO M 1966 ITA A.S. DILETT. G.S.INDOMITA MM45 1:43:53
985 624 586 97 COMMONE LUCIANO M 1974 ITA ASD ZENA TRI TEAM MM35 1:43:54
960 625 39 1 ALBERI STEFANIA F 1960 ITA MARATONETI GENOVESI MF50 1:43:56
1481 626 587 70 POLI ROBERTO M 1959 ITA MARATONETI GENOVESI MM50 1:43:57
173 627 588 75 BARTOLUCCI MARCO M 1982 ITA   TM 1:43:57
537 628 589 126 MARIANI PIETROPAOLO M 1967 ITA   MM40 1:43:58
1232 629 590 40 MOTTA GIUSEPPE M 1954 ITA GRUPPO CITTA' DI GENOVA MM55 1:44:01
1073 630 591 122 DAGNINO NATALE M 1963 ITA G.S. COMUNALE S. OLCESE MM45 1:44:02
1251 631 592 41 MINUTO FILIPPO M 1956 ITA ATLETICA CAIRO MM55 1:44:02
969 632 40 1 SCHENONE DIANA F 1948 ITA ASD PODISTICA PERALTO GENOVA MF60 1:44:03
324 633 41 2 ROGGERO CARMEN F 1961 ITA DELTA SPEDIZIONI MF50 1:44:04
1430 634 593 71 PELUCCHINI ADRIANO M 1960 ITA CAMBIASO RISSO RUNNING TEAM GE MM50 1:44:04
1058 635 594 123 DENTICE NICOLA M 1965 ITA ATL. CINISELLO MM45 1:44:04
858 636 595 127 PACCHIA ALESSANDRO M 1969 ITA PODISTICA WINNER FOLIGNO MM40 1:44:09
769 637 596 128 PIVA CRISTIANO M 1971 ITA   MM40 1:44:10
355 638 597 124 BIANCO MAURIZIO M 1966 ITA G.S.D. BRANCALEONE  ASTI MM45 1:44:10
1315 639 598 76 BLANCHETTI DAVIDE M 1981 ITA ATLETICA 2 PERLE TM 1:44:11
881 640 599 98 REGIS ANDREA M 1975 ITA CEDAS LANCIA VERRONE MM35 1:44:12
472 641 600 99 GAIATI MASSIMO M 1972 ITA VERDE PISELLO GROUP MILANO MM35 1:44:15
1355 642 601 1 MANZONI ALBERTO M 1941 ITA ASD PODISTICA PERALTO GENOVA MM70 1:44:19
721 643 602 129 COLETTA PIETRO M 1969 ITA POL. PORTA SARAGOZZA MM40 1:44:20
1171 644 603 100 FALCONE FABIO M 1975 ITA   MM35 1:44:20
632 645 42 3 PASA ILARIA F 1959 ITA MARATONETI GENOVESI MF50 1:44:21
1501 646 604 42 VALLARINO CARLO M 1956 ITA   MM55 1:44:22
887 647 605 43 D'ANGELO BRUNO M 1955 ITA G.S. COMUNALE S. OLCESE MM55 1:44:27
288 648 606 130 TORTORA MASSIMILIANO M 1969 ITA ATL. PAVESE MM40 1:44:36
1445 649 607 77 SEMINI CLAUDIO CARLO M 1977 SUI   TM 1:44:37
45 650 608 101 GRONDONA PIETRO M 1973 ITA CAMBIASO RISSO RUNNING TEAM GE MM35 1:44:38
894 651 609 102 BERTONASCO ANDREA M 1972 ITA PODISTICA PERALTO MM35 1:44:41
1138 652 610 131 CANEPA STEFANO M 1970 ITA PODISTICA VALPOLCEVERA MM40 1:44:45
1054 653 611 125 AUGURATI RENATO M 1963 ITA G.S. COMUNALE S. OLCESE MM45 1:44:47
96 654 612 14 GARCEA RENATO M 1951 ITA TOMMY SPORT- LA VALLE DEL LURA MM60 1:44:47
998 655 613 103 FESTELLI MORENO M 1975 ITA G.A.U. GIOVANI AMICI UNITI MM35 1:44:49
56 656 614 126 CASTAGNINO ANDREA M 1963 ITA CAMBIASO RISSO RUNNING TEAM GE MM45 1:44:54
77 657 615 127 MARRONE MARIO M 1962 ITA G.A.U. GIOVANI AMICI UNITI MM45 1:44:54
803 658 616 132 FORMAGGIO ANTONELLO M 1967 ITA CEDAS LANCIA VERRONE MM40 1:44:57
1458 659 617 104 RETE GIUSEPPE M 1976 ITA   MM35 1:44:57
242 660 618 133 LEONCINI DAVIDE M 1970 ITA MULTEDO 1930 MM40 1:45:00
1185 661 619 128 TORRACCA PAOLO M 1964 ITA   MM45 1:45:01
653 662 620 129 UBERTAZZO MICHELE M 1966 ITA   MM45 1:45:02
725 663 621 78 CAVALERA FABRIZIO M 1978 ITA SANREMO RUNNERS TM 1:45:02
205 664 622 134 SILENZI MIRCO M 1968 ITA   MM40 1:45:03
212 665 623 105 TINELLI MAURO M 1973 ITA   MM35 1:45:03
890 666 624 106 MANTO LUCA M 1972 ITA HAPPY RUNNER CLUB MM35 1:45:05
949 667 43 8 TASSISTRO MICHELA F 1967 ITA ASD PODISTICA PERALTO GENOVA MF40 1:45:06
765 668 625 3 MAZZA ROBERTO M 1943 ITA G.S. SAN MARTINO MM65 1:45:07
1399 669 626 15 CHIARABINI WALTER M 1949 ITA MARATONETI GENOVESI MM60 1:45:08
555 670 627 36 CANAVERA LUCA M 1965 ITA GRUPPO CITTA' DI GENOVA SM 1:45:13
636 671 44 7 SERPIERI LAURA F 1976 ITA MARATONETI GENOVESI MF35 1:45:14
481 672 45 4 ZAPPONI MARINA F 1961 ITA U.S. MAURINA OLIO CARLI MF50 1:45:16
177 673 628 135 GARETTI RICCARDO M 1969 ITA   MM40 1:45:17
1356 674 629 136 GEMMA GIANLUIGI M 1967 ITA GS COMUNALE S.OLCESE MM40 1:45:17
79 675 630 16 PEDEMONTE ELVIO M 1948 ITA DELTA SPEDIZIONI MM60 1:45:17
80 676 46 2 MOI GIOVANNA F 1950 ITA DELTA SPEDIZIONI MF60 1:45:17
788 677 631 107 ANDREONI SIMONE M 1972 ITA   MM35 1:45:18
679 678 632 79 DE BARBIERI STEFANO M 1978 ITA   TM 1:45:18
1022 679 633 37 OLIVERI MAURO M 1968 ITA GRUPPO CITTA' DI GENOVA SM 1:45:18
1453 680 634 72 MERLO IVANO M 1957 ITA   MM50 1:45:18
1299 681 635 38 LUPERI FERRUCCIO M 1961 ITA GRUPPO CITTA' DI GENOVA SM 1:45:19
667 682 636 44 STUA WILLIAM M 1952 ITA MARATHON CLUB IMPERIA MM55 1:45:21
78 683 637 130 FOIANESI FRANCESCO M 1965 ITA   MM45 1:45:21
1028 684 638 137 GIOVAGNOLI LUIGI M 1970 ITA   MM40 1:45:22
683 685 639 73 ARMANINO ALBINO M 1960 ITA MARATONETI DEL TIGULLIO MM50 1:45:24
335 686 640 131 MISLEY ALESSANDRO M 1964 ITA   MM45 1:45:25
1282 687 641 45 GALLO GIUSEPPE M 1954 ITA   MM55 1:45:25
610 688 642 4 CASELLA CAMLLO M 1943 ITA MARATONETI GENOVESI MM65 1:45:27
368 689 643 80 CHIABRERA MAURIZIO M 1977 ITA ATL. OVADESE ORMIG TM 1:45:28
1104 690 644 74 TRAVERSA ENZO M 1960 ITA G.S. COMUNALE S. OLCESE MM50 1:45:28
180 691 645 138 BUCCA ANTONINO M 1969 ITA A.S. DILETT. G.S.INDOMITA MM40 1:45:28
1042 692 646 139 LAPILLO SANDRO M 1967 ITA G.S. COMUNALE S. OLCESE MM40 1:45:29
408 693 47 9 CAMPAGNA ANGELA F 1968 ITA ATL. VIGNATE MF40 1:45:30
1149 694 647 108 MARIANI STEFANO M 1972 ITA RUNNERS DESIO MM35 1:45:30
652 695 648 75 COLITTI UMBERTO M 1960 ITA PODISTICA SOLIDARIETA' MM50 1:45:30
268 696 48 8 RINALDI CINZIA F 1973 ITA SESIA RUNNING MF35 1:45:32
1160 697 649 81 CETTA FRANCESCO M 1988 ITA   TM 1:45:32
822 698 650 140 BIANCO CARLO M 1969 ITA   MM40 1:45:34
1340 699 651 82 GAMBACORTA ANDREA M 1980 ITA GENOA ATLETICA TM 1:45:35
1422 700 652 141 MORDIGLIA ALDO M 1969 ITA CAMBIASO RISSO RUNNING TEAM GE MM40 1:45:35
152 701 653 142 BALZANO MICHELE M 1967 ITA NUOVA ATLETICA CIRIE' MM40 1:45:38
1332 702 654 143 ORLANDO MASSIMO M 1971 ITA GENOA ATLETICA MM40 1:45:39
1487 703 655 132 TESTA FRANCESCO M 1962 ITA ASD PODISTICA PERALTO GENOVA MM45 1:45:40
1121 704 656 17 ISOLA CARLO M 1950 ITA S.S. TRIONFO LIGURE MM60 1:45:41
882 705 657 109 GILLIO PAOLO M 1973 ITA   MM35 1:45:46
149 706 658 110 BERRETTIERI MARCO M 1974 ITA A.S.D. SPECTEC ATL. CARISPE MM35 1:45:50
586 707 659 111 PERINO GIUSEPPE M 1972 ITA   MM35 1:45:53
688 708 49 9 PANZERI SAMANTHA F 1973 ITA   MF35 1:45:54
712 709 660 144 BOTTINI ANDREA M 1969 ITA   MM40 1:45:56
127 710 661 112 HOSS CHRISTOF M 1972 GER ASD PODISTICA PERALTO GENOVA MM35 1:45:56
1007 711 662 145 GUIDUCCI LUCA M 1971 ITA ASD PODISTICA PERALTO GENOVA MM40 1:45:56
845 712 663 76 BAFFI GIAMPIERO M 1958 ITA A.S. GINNIC-CLUB PIACENZA MM50 1:46:00
1179 713 664 113 SCROBOGNA ALESSANDRO M 1972 ITA   MM35 1:46:00
1489 714 50 10 MARCHELLI LUCIA F 1971 ITA CAMBIASO RISSO RUNNING TEAM GE MF40 1:46:02
236 715 665 146 BETTONI ROBERTO M 1969 ITA   MM40 1:46:05
734 716 51 9 PITTALUGA SILVIA F 1978 ITA G.S. COMUNALE S. OLCESE TF 1:46:06
1244 717 52 5 TULLO MARIA FRANCA F 1958 ITA G.S. COMUNALE S. OLCESE MF50 1:46:08
815 718 53 2 COLOMBO ORIANA F 1956 ITA EUROATLETICA 2002 MF55 1:46:15
1088 719 666 39 OLIVIERI CLAUDIO M 1958 ITA GRUPPO CITTA' DI GENOVA SM 1:46:15
1370 720 667 46 PERI ALESSANDRO M 1955 ITA   MM55 1:46:17
782 721 668 83 CANGIANO CARLO M 1981 ITA   TM 1:46:21
374 722 669 84 SABATINO MATTEO M 1977 ITA   TM 1:46:24
198 723 670 114 BINDA ALESSANDRO M 1973 ITA   MM35 1:46:27
200 724 671 147 PATRIARCA MARCO M 1967 ITA   MM40 1:46:27
517 725 672 133 VIOLA PIETRO M 1962 ITA G.S. VOLONTARI MORTARA MM45 1:46:28
1401 726 673 115 CECCARONI ARMANDO M 1972 ITA LIBERO MM35 1:46:30
54 727 674 77 RAMOS GUIDO M 1960 ITA S.S. TRIONFO LIGURE MM50 1:46:35
587 728 54 11 MALAGUTI GIORGIA F 1968 ITA   MF40 1:46:37
189 729 675 134 CALZA ROBERTO M 1963 ITA   MM45 1:46:39
341 730 676 148 CAMPI PAOLO M 1969 ITA   MM40 1:46:40
1092 731 677 78 BERRINO MAURIZIO M 1957 ITA G.A.U. GIOVANI AMICI UNITI MM50 1:46:42
833 732 678 79 PARISI VITO M 1959 ITA U.S. MAURINA OLIO CARLI MM50 1:46:46
1485 733 679 149 CENTONZA MATTEO M 1967 ITA G.S. COMUNALE S. OLCESE MM40 1:46:47
321 734 680 150 DE MEO FABIO M 1970 ITA CAMBIASO RISSO RUNNING TEAM GE MM40 1:46:48
108 735 681 116 CREVACORE MAURIZIO M 1973 ITA PODISTICA ARONA MM35 1:46:49
1373 736 55 12 VASSALLO SABRINA F 1971 ITA   MF40 1:46:50
928 737 682 85 CAGNO MATTEO M 1977 ITA   TM 1:46:51
340 738 683 80 MARZORATI GIANCARLO M 1958 ITA DELTA SPEDIZIONI MM50 1:46:55
44 739 684 117 FERRETTI CHIRSTIAN M 1973 ITA   MM35 1:46:56
465 740 685 151 DOGALI FULVIO M 1970 ITA ATLETICA CERIALE SAN GIORGIO MM40 1:46:58
466 741 686 47 AGOSTINO PARODI M 1955 ITA S.S. RUNNERS LOANO MM55 1:46:59
204 742 687 81 CUNEO ANTONIO M 1960 ITA   MM50 1:47:01
220 743 688 82 GATTO GIOVANNI M 1957 ITA CAMBIASO RISSO RUNNING TEAM GE MM50 1:47:03
1069 744 689 135 MAGNI GIUSEPPE M 1964 ITA ASD PODISTICA PERALTO GENOVA MM45 1:47:06
192 745 690 48 MONTINI ELIO M 1955 ITA ATL. DI LUMEZZANE C.S.P. MM55 1:47:08
369 746 691 49 CAGGIARI FILIPPO M 1954 ITA ATL. AMBROSIANA MM55 1:47:08
777 747 692 118 CIVERIATI PIERPAOLO M 1975 ITA DERTHONA ATLETICA MM35 1:47:08
1084 748 693 83 ROLLA CLAUDIO M 1957 ITA A.S.D.  C.U.S. GENOVA MM50 1:47:10
267 749 56 10 GARBARINO ALESSIA F 1976 ITA MARATONETI GENOVESI MF35 1:47:14
618 750 694 136 GHEZZI ENRICO M 1966 ITA MARATONETI GENOVESI MM45 1:47:14
701 751 695 84 GARBINI FRANCO M 1960 ITA A.D. POLISPORTIVA PONTECARREGA MM50 1:47:14
266 752 696 40 VALPREDA PAOLO M 1966 ITA GRUPPO CITTA' DI GENOVA SM 1:47:16
1238 753 697 4 GENCO CARLO M 1967 ITA   - 1:47:17
290 754 698 152 BIGATTI PAOLO M 1971 ITA LA TIGRE MM40 1:47:18
171 755 699 50 DE TATA ROMUALDO M 1956 ITA   MM55 1:47:20
776 756 700 119 GUALCO MATTEO M 1972 ITA DERTHONA ATLETICA MM35 1:47:20
137 757 701 18 RIGAMONTI ETTORE M 1949 ITA MARATONETI DEL TIGULLIO MM60 1:47:20
663 758 57 10 GACKSTAETTER FRANZISKA F 1988 GER   TF 1:47:21
1252 759 702 137 REITANO SERGIO M 1966 ITA A.S. AMATORI SPORT MM45 1:47:21
606 760 703 85 BERTOLI MARCO M 1961 ITA MARATONETI GENOVESI MM50 1:47:26
226 761 704 153 TAROCCO GIORGIO M 1967 ITA ATLETICA INTESA MM40 1:47:32
348 762 58 11 CONTI SAMANTA F 1972 ITA C.S.D. FIAMME GIALLE AOSTA MF35 1:47:35
349 763 705 154 PEZZOTTI ROBERTO M 1969 ITA ATLETICA SANDRO CALVESI MM40 1:47:35
910 764 706 41 REPETTO ALBERTO M 1980 ITA GRUPPO CITTA' DI GENOVA SM 1:47:37
448 765 59 8 CATINA ROBERTA F 1964 ITA EUROPA SPORTING CLUB MF45 1:47:39
278 766 60 9 PISKATOR TARA F 1964 USA   MF45 1:47:39
1357 767 707 155 DEL BELLO FERDINANDO PAOLO M 1968 ITA GS COMUNALE S.OLCESE MM40 1:47:39
1219 768 708 138 BRUZZONE GIANLUCA M 1966 ITA   MM45 1:47:40
1483 769 709 51 LAZZARINO FEDERICA M 1954 ITA GAU MM55 1:47:41
1364 770 710 139 CUTRONA FABRIZIO M 1964 ITA   MM45 1:47:45
124 771 711 86 RANDO MAURIZIO M 1959 ITA G.A.U. GIOVANI AMICI UNITI MM50 1:47:45
1025 772 712 156 ROSSI FRANCO M 1969 ITA   MM40 1:47:46
596 773 713 52 RIVA ROBERTO M 1953 ITA G.A.P. SARONNO MM55 1:47:47
608 774 714 157 BOSIA PAOLO M 1967 ITA MARATONETI GENOVESI MM40 1:47:49
119 775 715 140 SCARSCELLI DANIELE M 1962 ITA   MM45 1:47:50
285 776 716 86 RIZZATO CRISTIAN M 1977 ITA ATL. IRIENSE VOGHERA TM 1:47:53
585 777 717 158 SPIRITIGLIOZZI ALDO M 1971 ITA   MM40 1:47:57
496 778 718 159 SAVASTANO LUIGI M 1968 ITA HAPPY RUNNER MM40 1:47:57
1376 779 719 141 LANZA DE CRISTOFORIS GIOVANNI M 1964 ITA   MM45 1:48:00
445 780 720 160 BRAMBILLA ROBERTO M 1967 ITA CASTELLO RUNNING MM40 1:48:01
1035 781 721 161 D'ANNA ALESSANDRO M 1967 ITA G.A.U. GIOVANI AMICI UNITI MM40 1:48:04
333 782 722 162 SCHOEN CHICO M 1970 ITA   MM40 1:48:05
1272 783 61 12 AMORUCCIO VILMA F 1975 ITA   MF35 1:48:06
1451 784 62 13 PORRU PATRIZIA F 1975 ITA   MF35 1:48:18
1253 785 723 53 TINELLI PIERANTONIO M 1952 ITA A.S. AMATORI SPORT MM55 1:48:19
546 786 724 54 PESCE GILBERTO M 1952 ITA CAMBIASO RISSO RUNNING TEAM GE MM55 1:48:21
63 787 725 87 OTTOBONI ALBERTO M 1979 ITA ATLETICA DUE PERLE TM 1:48:21
1204 788 726 142 MARCHIONNI MARCO M 1964 ITA CAMBIASO RISSO RUNNING TEAM GE MM45 1:48:30
601 789 727 55 SAMBROTTA PAOLO M 1956 ITA G.A.P. SARONNO MM55 1:48:32
263 790 728 87 SERVETTI GIULIANO M 1958 ITA ASS. PRO SAN PIETRO SANREMO MM50 1:48:35
364 791 729 88 PARATI GIOVANNI M 1959 ITA ROAD RUNNERS CLUB MILANO MM50 1:48:40
427 792 730 14 JESTER GUIDO M 1963 ITA ASD PODISTICA PERALTO GENOVA MF35 1:48:44
1492 793 731 5 CERESETO FRANCO M 2011 ITA GS COMUNALE S.OLCESE - 1:48:46
1214 794 732 143 GALIANO VINCENZO M 1963 ITA A.S.D.  C.U.S. GENOVA MM45 1:48:46
598 795 733 144 ANTONIETTI DARIS M 1962 ITA G.A.P. SARONNO MM45 1:48:47
229 796 734 120 BOCCHI MATTEO M 1972 ITA PIEDI DI GHISA MM35 1:48:47
365 797 735 145 SGARAGLI REMO M 1962 ITA ROAD RUNNERS CLUB MILANO MM45 1:48:48
1163 798 736 146 BALLARINI ALESSANDRO M 1966 ITA ATLETICA VALLE SCRIVIA MM45 1:48:49
804 799 63 15 SARASINO MARCELLA F 1973 ITA CEDAS LANCIA VERRONE MF35 1:48:50
1498 800 737 88 GUALCO SIMONE M 1981 ITA   TM 1:48:51
1291 801 738 89 AICARDI FRANCESCO M 1988 ITA   TM 1:48:52
616 802 739 56 FRAGNELLI VITO M 1956 ITA MARATONETI GENOVESI MM55 1:48:53
1057 803 740 147 CRIVELLI CLAUDIO M 1963 ITA CAMBIASO RISSO RUNNING TEAM GE MM45 1:48:56
1237 804 741 148 BERNARDELLI LUCA M 1964 ITA   MM45 1:48:58
449 805 742 149 GAFFORINI ANTONIO M 1963 ITA EUROPA SPORTING CLUB MM45 1:49:03
191 806 743 121 SCAFFIDI CLAUDIO M 1975 ITA SOCIETA'ATLETICA BELLINZAGO MM35 1:49:04
560 807 64 3 GIARDINA SANTA F 1951 ITA GRUPPO CITTA' DI GENOVA MF60 1:49:04
1197 808 744 150 BRUNO ENRICO M 1963 ITA   MM45 1:49:05
121 809 745 163 CAPOZZOLI RAFFAELE M 1971 ITA RUNNER VARESE MM40 1:49:08
231 810 746 122 LAURIOLA STEFANO M 1974 ITA GAZZETTA RUNNERS CLUB MM35 1:49:08
673 811 747 164 PARODI GIAMBATTISTA M 1970 ITA ATL. RUN FINALE LIGURE MM40 1:49:09
232 812 65 16 MONTAGNER MICHELA F 1974 ITA GAZZETTA RUNNERS CLUB MF35 1:49:09
847 813 748 89 GIACOBBE CARLO M 1957 ITA PODISTICA SAVONESE MM50 1:49:10
488 814 749 90 FIGGIACONI LUIS M 1961 ARG   MM50 1:49:12
1321 815 750 151 PASERO DANILO M 1965 ITA   MM45 1:49:18
1017 816 751 165 FREGOSI STEFANO M 1967 ITA CAMBIASO RISSO RUNNING TEAM GE MM40 1:49:22
1066 817 752 152 ROGAI ROBERTO M 1962 ITA ASD PODISTICA PERALTO GENOVA MM45 1:49:23
1476 818 753 123 NICOLI DANIELE M 1973 ITA SISPORT GYM SEZIONE RUNNING MM35 1:49:26
1031 819 754 166 ZUCCHINI MARCO M 1971 ITA   MM40 1:49:26
743 820 66 17 FERRO ELENA F 1974 ITA PODISTICA SOLIDARIETA' MF35 1:49:28
963 821 67 6 TAVELLA ORIETTA F 1959 ITA ATLETICA VALLE SCRIVIA MF50 1:49:29
1288 822 755 167 MARTINI PIERFRANCESCO M 1968 ITA GS COMUNALE S.OLCESE MM40 1:49:30
429 823 756 90 PARODI LUCA M 1980 ITA G.S. COMUNALE S. OLCESE TM 1:49:31
1169 824 757 168 MORSELETTO MICHELE M 1967 ITA   MM40 1:49:32
72 825 758 124 QUINONEZ FELIX M 1974 ITA   MM35 1:49:32
207 826 759 57 ASTI ADRIANO M 1956 ITA G.P. SOLVAY SOLEXIS MM55 1:49:34
286 827 68 4 DI GIORGIO GIOVANNA F 1951 ITA DELTA SPEDIZIONI MF60 1:49:34
607 828 760 58 BISACCHI ANDREA M 1956 ITA MARATONETI GENOVESI MM55 1:49:35
223 829 761 169 PARDI ANGELO M 1971 ITA   MM40 1:49:35
750 830 69 18 BREUSA ELENA F 1972 ITA G.S.P. 80 POMARETTO MF35 1:49:35
287 831 762 91 RISSO LUIGI M 1961 ITA DELTA SPEDIZIONI MM50 1:49:36
751 832 763 170 MARTINAT FABRIZIO M 1971 ITA G.S.P. 80 POMARETTO MM40 1:49:36
447 833 764 92 CIRIMBELLI EMILIO M 1958 ITA EUROPA SPORTING CLUB MM50 1:49:37
172 834 765 19 ORLANDINI LUIGI M 1949 ITA RUNNERS BERGAMO MM60 1:49:38
1191 835 766 5 LODOLA ORAZIO M 1946 ITA C.U.S. PAVIA MM65 1:49:43
781 836 767 59 MAZZOCCHI MAURIZIO M 1955 ITA POD. S.MAURIZIO MM55 1:49:46
495 837 768 171 PIGNI DIONIGI M 1970 ITA BARADELLO MM40 1:49:55
444 838 769 172 BOLDRINI FABIANO M 1968 ITA YOUNG RUNNING MM40 1:49:57
116 839 770 125 CORRENTI VALENTINO M 1975 ITA G.S.D. BRANCALEONE  ASTI MM35 1:49:57
1393 840 771 93 BALDACCI MASSIMO M 1958 ITA CAMBIASO RISSO RUNNING TEAM GE MM50 1:49:58
1318 841 772 126 GIOFFRE CHRISTIAN M 1976 ITA ATLETICA 2 PERLE MM35 1:49:59
545 842 773 42 ARRIGO DANILO M 1970 ITA S. ATL. GENOA 'ATLETICA' SM 1:50:00
1039 843 774 173 MAGALINO FERNANDO M 1971 ITA ATL. OVADESE ORMIG MM40 1:50:01
261 844 775 94 SPERANZA ROBERTO M 1961 ITA PODISTICA VALPOLCEVERA MM50 1:50:01
657 845 776 153 GHIBAUDO PAOLO M 1966 ITA ATLETICA VARAZZE MM45 1:50:02
491 846 777 174 CENTOMANI FRANCESCO M 1969 ITA G.S. COMUNALE S. OLCESE MM40 1:50:03
43 847 778 175 NIOI FRANCESCO M 1971 ITA G.S. COMUNALE S. OLCESE MM40 1:50:03
1083 848 779 95 CHIARELLA GIUSEPPE M 1957 ITA A.S.D.  C.U.S. GENOVA MM50 1:50:05
1106 849 780 60 LOMBARDO MAURO M 1955 ITA CUS PARMA MM55 1:50:07
311 850 70 11 MALAGONI CRISTINA F 1979 ITA ATL. VERBANO TF 1:50:07
190 851 781 20 SCHINTU FRANCO M 1949 ITA   MM60 1:50:09
129 852 782 21 CANEPA MIRCO M 1948 ITA ASD PODISTICA PERALTO GENOVA MM60 1:50:09
184 853 783 127 MUCELLA DE GAETANO ANGELO M 1973 ITA   MM35 1:50:18
1195 854 784 176 BESANA CARLO SILVIO M 1967 ITA ROAD RUNNERS CLUB MILANO MM40 1:50:19
1015 855 785 177 BAZZANO ALBERTO M 1970 ITA   MM40 1:50:20
460 856 786 154 LAMORTE PASQUALINO M 1964 ITA   MM45 1:50:21
1414 857 787 128 ORCHARD ALASTAIR LEONARD M 1973 ENG   MM35 1:50:22
658 858 71 10 GIGANTE SIMONA F 1965 ITA ASD ORTICA TEAM MF45 1:50:22
57 859 788 155 PAPI GIUSEPPE M 1964 ITA   MM45 1:50:23
459 860 789 156 MONTICO ALBERTO M 1965 ITA   MM45 1:50:23
1343 861 790 129 NOVARINO PIETRO M 1972 ITA AAA GENOVA MM35 1:50:24
107 862 791 130 VISENTIN CRISTIANO M 1976 ITA ATL. IRIENSE VOGHERA MM35 1:50:27
474 863 792 131 MICCOLO ANTONIO M 1972 ITA   MM35 1:50:27
1366 864 793 6 FAGGIONI EZIO M 1989 ITA   - 1:50:28
613 865 72 7 D'AMICO SANDRA F 1961 ITA MARATONETI GENOVESI MF50 1:50:29
1444 866 794 96 BALBI DOMENICO M 1957 ITA MARATONETI GENOVESI MM50 1:50:30
1335 867 73 13 PEDRONI FRANCESCA F 1971 ITA GENOA ATLETICA MF40 1:50:31
2048 868 795 91 MINERVINI LUIGI M 1978 ITA LIBERO TM 1:50:31
938 869 796 92 LAGOMARSINO PAOLO M 1981 ITA CAMBIASO RISSO RUNNING TEAM GE TM 1:50:33
732 870 797 178 GERACI GAETANO M 1969 ITA PODISTICA VALPOLCEVERA MM40 1:50:34
745 871 798 97 GARATTI PIETRO M 1961 ITA A.S.D. BIPEDI MM50 1:50:34
199 872 799 98 SERTORI PATRICK M 1959 SUI   MM50 1:50:34
609 873 74 3 CADDEO ANNA F 1952 ITA MARATONETI GENOVESI MF55 1:50:35
417 874 800 61 AMMESSO ETTORE M 1956 ITA ATL. VIGNATE MM55 1:50:36
1409 875 801 62 NIGRO ANTONIO M 1956 ITA   MM55 1:50:40
1154 876 802 99 COSTANTINO SILVANO M 1957 ITA ASS. DILET. CANAVESE 2005 MM50 1:50:41
1408 877 803 132 DIANA FABRIZIO M 1975 ITA ASD PODISTICA PERALTO MM35 1:50:41
844 878 804 157 SUGARONI FRANCO M 1965 ITA A.S. GINNIC-CLUB PIACENZA MM45 1:50:42
802 879 805 179 BECCARI MASSIMO M 1967 ITA CEDAS LANCIA VERRONE MM40 1:50:45
1443 880 806 133 CARENZI GIANNI M 1975 ITA ASD LA MICHETTA MM35 1:50:48
1087 881 807 43 CANEPA FABIO M 1960 ITA GRUPPO CITTA' DI GENOVA SM 1:50:51
1349 882 808 134 SARTORE ANDREA M 1974 ITA   MM35 1:50:56
155 883 809 135 CALASCIBETTA GIUSEPPE M 1973 ITA ATL. ANZIO MM35 1:50:56
850 884 810 180 FONTANA FABRIZIO M 1967 ITA   MM40 1:51:00
492 885 811 136 GUGLIELMETTI NICOLA M 1974 ITA PLACENTIA EVENTS MM35 1:51:02
1348 886 812 93 BUCCIANTI ALBERTO M 1986 ITA CUS GENOVA TM 1:51:03
888 887 75 8 BIZZI ORNELLA F 1960 ITA G.S. COMUNALE S. OLCESE MF50 1:51:05
1158 888 813 158 YAMAGUCHI TORU M 1962 JPN GS AVIS TREVIGLIO G.BRUSAFERRI MM45 1:51:09
580 889 814 181 PARODI FABIO M 1969 ITA ATLETICA VALLE SCRIVIA MM40 1:51:09
391 890 815 159 PASTORELLI DANIELE M 1964 ITA   MM45 1:51:12
837 891 76 19 TOSELLO CRISTINA F 1972 ITA G.P. AVIS VIGEVANO-GRAVELLONA MF35 1:51:14
122 892 816 182 GOERGEN PETER M 1971 ITA RUNNER VARESE MM40 1:51:15
924 893 817 94 CARBONE MATTEO M 1978 ITA MARATONETI GENOVESI TM 1:51:18
194 894 77 11 RIZZOLI RAFFAELLA F 1964 ITA CRAL BORMIOLI LUIGI MF45 1:51:20
193 895 818 160 BERNI GABRIELE M 1962 ITA CRAL BORMIOLI LUIGI MM45 1:51:20
75 896 819 161 DEL SOLDATO RICCARDO M 1962 ITA CRAL BORMIOLI LUIGI MM45 1:51:21
1071 897 820 162 PAGLIERI CLAUDIO M 1965 ITA UISP GENOVA MM45 1:51:21
699 898 821 183 ZOPPOLATO MAURIZIO PIERO M 1967 ITA   MM40 1:51:21
497 899 822 63 CERRONE SERGIO M 1956 ITA PIETRO MICCA BIELLA MM55 1:51:23
405 900 823 137 TEMPO VITTORIO M 1972 ITA A.S. 'FOCE' SANREMO MM35 1:51:25
1283 901 824 22 RUSCIANO ANTONIO M 1951 ITA ASD PODISTICA PERALTO GENOVA MM60 1:51:25
1123 902 825 23 BOSCO ROCCO M 1947 ITA AVIS TORINO MM60 1:51:26
507 903 826 138 GRAGNANO MASSIMO M 1972 ITA ATLETICA CERIALE SAN GIORGIO MM35 1:51:26
1260 904 827 95 MASSUCCO ANDREA M 1977 ITA ATL. NOVESE TM 1:51:26
836 905 78 12 COBIANCHI ELISA FEDERICA F 1978 ITA G.P AVIS VIGEVANO TF 1:51:27
521 906 828 100 QUANTELLI GIOVANNI M 1961 ITA U.S. ACLI SCALO VOGHERA MM50 1:51:28
237 907 829 163 RAGUSA FRANCESCO PAOLO M 1965 ITA   MM45 1:51:28
483 908 830 184 BUCCI ENZO M 1970 ITA G.S. AVIS - SEREGNO MM40 1:51:32
169 909 831 139 PESTARINO LUCA M 1975 ITA   MM35 1:51:32
167 910 832 164 MARTINI CLAUDIO M 1963 ITA   MM45 1:51:32
1099 911 833 101 ZINGARO GIUSEPPE M 1961 ITA MARATONETI GENOVESI MM50 1:51:32
984 912 834 140 RASETO ALESSANDRO M 1976 ITA ATLETICA VALLE SCRIVIA MM35 1:51:33
1338 913 835 44 CAMPOSTANO ENRICO M 1962 ITA GENOA ATLETICA SM 1:51:35
1403 914 836 185 LORUSSO ANDREA M 1970 ITA   MM40 1:51:37
645 915 79 14 MARTELLI LUCIANA F 1970 ITA POL. ARENZANO SEZ. ATLETICA MF40 1:51:37
1365 916 837 7 FAGGIONI EDOARDO M 1993 ITA   - 1:51:40
313 917 838 102 CAMBIASO MAURIZIO M 1961 ITA ASD PODISTICA PERALTO GENOVA MM50 1:51:40
789 918 839 103 FIORUCCI AMEDEO M 1958 ITA CEDAS FIAT GRUPPO PODISMO MM50 1:51:41
676 919 80 12 SCAMARCIA BENEDETTA F 1964 ITA ASD ERGUS MF45 1:51:44
94 920 840 165 LAPIETRA MARIO M 1966 ITA MULTEDO 1930 MM45 1:51:46
1352 921 841 104 LA PIANA GIUSEPPE M 1961 ITA CAMBIASO RISSO RUNNING TEAM GE MM50 1:51:47
1331 922 842 45 CIMINO ANTONIO M 1971 ITA GENOA ATLETICA SM 1:51:47
304 923 843 166 COSTIGLIOLO FABRIZIO M 1965 ITA MARATONETI GENOVESI MM45 1:51:48
50 924 81 4 KJERSTAD TORUNN ANITA F 1952 NOR   MF55 1:51:49
146 925 82 20 CASELLA MONICA F 1972 ITA MARATONETI DEL TIGULLIO MF35 1:51:51
711 926 844 105 DAMIANI TIZIANO M 1961 ITA   MM50 1:51:51
1180 927 83 13 NORBIATO MAURA F 1978 ITA G.S.D. SAI  FRECCE BIANCHE POD TF 1:51:51
1416 928 845 167 DELL'ACQUA PIERPAOLO M 1964 ITA   MM45 1:51:55
1415 929 846 168 MONTI ALESSANDRO M 1965 ITA   MM45 1:51:55
526 930 847 186 SCHIAPPACASSE STEFANO M 1971 ITA PODISTI DEL GOLFO PARADISO MM40 1:52:00
470 931 848 24 MERCADANTE WALTER M 1947 ITA   MM60 1:52:00
974 932 849 141 BAGNOLI FABIO M 1972 ITA S.S. TRIONFO LIGURE MM35 1:52:01
615 933 850 25 DERCHI EGILDO M 1951 ITA MARATONETI GENOVESI MM60 1:52:02
363 934 84 13 BENONE GIACOLETTO LOREDANA F 1962 ITA ASS. DILET. CANAVESE 2005 MF45 1:52:05
415 935 851 2 PIZZATI IVANO M 1941 ITA ATL. VIGNATE MM70 1:52:10
660 936 852 142 FAMA' FRANCESCO M 1974 ITA   MM35 1:52:12
806 937 85 15 BIROLO PAOLA F 1970 ITA CEDAS LANCIA VERRONE MF40 1:52:14
284 938 853 106 LOMBARDI PIERSANDRO M 1960 ITA   MM50 1:52:14
1196 939 854 107 POZZO ANGELO M 1959 ITA PODISTI DEL GOLFO PARADISO MM50 1:52:14
1120 940 855 64 PAMPALONI FABIO M 1955 ITA DELTA SPEDIZIONI MM55 1:52:15
457 941 86 14 CANAVESI MARIA ELENA F 1985 ITA TOMMY SPORT- LA VALLE DEL LURA TF 1:52:16
1404 942 856 169 CUSATO SANDRO M 1964 ITA   MM45 1:52:16
203 943 857 170 NICO' ANDREA M 1966 ITA G.S. VOLONTARI MORTARA MM45 1:52:19
230 944 858 96 VISENTINI ANDREA M 1982 ITA PIEDI DI GHISA TM 1:52:24
1435 945 859 143 ODESCALCHI FABIO M 1974 ITA   MM35 1:52:25
1153 946 860 108 GATTI MAURIZIO M 1960 ITA   MM50 1:52:28
111 947 861 171 CAPURRO ANDREA M 1965 ITA   MM45 1:52:28
1221 948 862 97 SCAGLIA STEFANO M 1977 ITA   TM 1:52:29
1217 949 863 144 STEFAN FABRIZIO M 1972 ITA   MM35 1:52:29
1152 950 864 187 MERIALDI ANGELO M 1968 ITA   MM40 1:52:31
1236 951 87 14 FERRARI ANTONELLA F 1965 ITA   MF45 1:52:35
1127 952 865 26 FAVA GIUSEPPE M 1947 ITA GAU MM60 1:52:35
623 953 866 188 MARISCOTTI ANDREA M 1968 ITA MARATONETI GENOVESI MM40 1:52:41
706 954 867 172 D'AMBROSIO RODOLFO M 1965 ITA POD. S.MAURIZIO MM45 1:52:41
549 955 868 145 SCIUTTO ROBERTO M 1973 ITA ACQUIRUNNERS MM35 1:52:43
1096 956 869 109 ROCCO FABIO M 1960 ITA ASD PODISTICA PERALTO GENOVA MM50 1:52:52
709 957 870 173 MARZARI GIORDANO M 1962 ITA POD. S.MAURIZIO MM45 1:52:53
1466 958 871 27 ALLENA GIUSEPPE M 1951 ITA A.S.D PAM MONDOVI-CHIUSA PESIO MM60 1:52:55
1234 959 872 1 SACCO ANGELO M 1935 ITA GRUPPO CITTA' DI GENOVA MM75 1:52:57
1115 960 873 65 GANDINO FRANCESCO M 1955 ITA ASD POLISPORTIVA VIRTUS SESTRI MM55 1:53:00
120 961 874 174 PELOSO MAURO M 1965 ITA   MM45 1:53:03
904 962 88 15 COLOMBI CHIARA F 1982 ITA   TF 1:53:04
463 963 89 16 BURLANDO MARTINA F 1978 ITA CAMBIASO RISSO RUNNING TEAM GE TF 1:53:06
758 964 875 189 SASSANO LEO M 1969 ITA   MM40 1:53:07
1141 965 876 28 FRULIO DOMENICO M 1947 ITA G.S.D. SAI  FRECCE BIANCHE POD MM60 1:53:08
473 966 877 175 INVERNIZZI ANDREA M 1966 ITA TEAM OTC COMO MM45 1:53:09
591 967 878 146 CARUSO FABIO M 1975 ITA   MM35 1:53:10
559 968 879 3 FERRARINI MAURO M 1937 ITA GRUPPO CITTA' DI GENOVA MM70 1:53:11
681 969 880 176 FATONE VALTER M 1964 ITA P&C PODISMOECAZZEGGIO MM45 1:53:14
993 970 881 147 LAZZARI MARCO M 1975 ITA   MM35 1:53:16
992 971 882 148 ALVAREZ SOLA LEONARDO M 1976 ESP   MM35 1:53:16
241 972 883 29 MARTINO LUIGI M 1951 ITA SISPORT GYM SEZIONE RUNNING MM60 1:53:18
1027 973 884 190 BARBIERI IVANO M 1969 ITA   MM40 1:53:19
176 974 90 9 CORTOLEZZIS STEFANIA F 1958 ITA G.P. CARTOTECNICA PIEMONTESE A MF50 1:53:20
540 975 91 16 MEJIA PONCE YANINA URSULINA F 1969 ITA   MF40 1:53:20
981 976 885 149 DE BENEDICTIS ISACCO M 1976 ITA   MM35 1:53:21
486 977 886 110 GIACOSA LIVIO M 1959 ITA   MM50 1:53:22
277 978 887 177 CREMONINI GABRIELE M 1966 ITA A.S.D. LA LUMEGA MM45 1:53:24
506 979 92 15 BERTUCCI PAOLA F 1962 ITA G.S. COMUNALE S. OLCESE MF45 1:53:25
930 980 888 98 ROMANO MARCO M 1980 ITA   TM 1:53:33
669 981 889 99 CANEPA DANIELE M 1977 ITA ATL. RUN FINALE LIGURE TM 1:53:35
402 982 890 100 DEL NEVO MICHELE M 1985 ITA   TM 1:53:37
774 983 93 10 MARIGNANI TIZIANA F 1961 ITA   MF50 1:53:41
499 984 891 66 RIMOLDI MAURO M 1955 ITA TOMMY SPORT- LA VALLE DEL LURA MM55 1:53:42
500 985 94 8 RIMOLDI GIORGIA F 1990 ITA   - 1:53:42
1418 986 95 21 MUSTICA TERESA F 1974 ITA LIBERO MF35 1:53:43
1112 987 892 67 PERONI ADRIANO M 1954 ITA CSI PAVIA MM55 1:53:46
426 988 893 68 BRUZZO GIANNI M 1955 ITA ASD PODISTICA PERALTO GENOVA MM55 1:53:54
373 989 894 178 GAIA' GIANNI M 1965 ITA   MM45 1:53:55
1270 990 895 191 STENDARDI LORENZO M 1968 ITA ROAD RUNNERS CLUB MILANO MM40 1:53:59
1385 991 896 101 FALLETI ANDREA M 1985 ITA   TM 1:54:00
588 992 897 192 FRANCONI ANDREA M 1967 ITA   MM40 1:54:01
446 993 96 16 MONTANI MONICA GIOVANNA F 1964 ITA EUROPA SPORTING CLUB MF45 1:54:01
796 994 898 150 FEDERICI GHERARDO M 1976 ITA POL. CORNIGLIANO 79 DILETT. MM35 1:54:04
795 995 899 193 FIBRINI LUCA M 1970 ITA POL. CORNIGLIANO 79 DILETT. MM40 1:54:04
362 996 900 69 DEIRO ITALO CARLO M 1956 ITA G. P. RIVAROLO 1977 MM55 1:54:06
901 997 97 17 PIAZZA SILVIA F 1980 ITA   TF 1:54:09
501 998 901 151 CONFORTI DARIO M 1973 ITA VERDE PISELLO GROUP MILANO MM35 1:54:10
994 999 902 152 NICOLI FABIO M 1976 ITA   MM35 1:54:12
130 1000 903 179 RADAELLI MARCO M 1962 ITA CAMBIASO RISSO RUNNING TEAM GE MM45 1:54:13
1421 1001 904 102 RAINERI DANIELE M 1977 ITA   TM 1:54:15
404 1002 905 153 NORDIO MASSIMILIANO M 1973 ITA DERTHONA ATLETICA MM35 1:54:16
1041 1003 906 194 SPADOTTO PAOLO M 1968 ITA G.S. COMUNALE S. OLCESE MM40 1:54:18
970 1004 907 6 MAGNANI CARLO M 1946 ITA ATL.UISP MARINA DI CARRARA MM65 1:54:19
1050 1005 908 180 GRITTA BENEDETTO M 1962 ITA   MM45 1:54:19
544 1006 98 22 ARRIGO ANTONELLA F 1975 ITA S. ATL. GENOA 'ATLETICA' MF35 1:54:20
876 1007 909 111 CARLINI FULVIO M 1957 ITA CAMBIASO RISSO RUNNING TEAM GE MM50 1:54:21
1030 1008 910 195 MONTARULI ROBERTO M 1970 ITA   MM40 1:54:21
1326 1009 911 46 ZANNIN MASSIMO M 1967 ITA GENOA ATLETICA SM 1:54:21
1431 1010 912 112 MINELLA MASSIMO M 1961 ITA GENOA ATLETICA MM50 1:54:24
905 1011 99 18 SANNA TIZIANA F 1979 ITA   TF 1:54:25
995 1012 913 154 DI MUZIO DAVIDE M 1973 ITA   MM35 1:54:26
1110 1013 914 70 CARBONE MAURO M 1954 ITA MARATONETI GENOVESI MM55 1:54:29
1406 1014 915 181 GRADANTI ANGELO M 1964 ITA ROWING CLUB MM45 1:54:30
110 1015 916 103 GHIO STEFANO M 1985 ITA   TM 1:54:31
35 1016 917 155 LIGUORI LUCIANO M 1974 ITA ATLETICA DUE PERLE MM35 1:54:31
702 1017 918 156 PIANO ALESSANDRO M 1973 ITA G.S. VOLONTARI MORTARA MM35 1:54:31
343 1018 919 196 MANEGGIA GIANLUCA M 1967 ITA   MM40 1:54:33
786 1019 920 113 GENTILINI ANDREA M 1961 ITA   MM50 1:54:33
1182 1020 921 104 OTTAIANO DARIO M 1979 ITA   TM 1:54:35
982 1021 922 157 SCOLA MANUELITO M 1972 ITA   MM35 1:54:36
219 1022 923 182 LENTI FEDERICO M 1963 ITA   MM45 1:54:37
771 1023 924 197 RAVAIOLI MARCO M 1970 ITA CAMBIASO RISSO RUNNING TEAM GE MM40 1:54:38
873 1024 100 17 ROSSI SILVIA F 1963 ITA MARATONETI DEL TIGULLIO MF45 1:54:40
458 1025 925 158 PACE FABRIZIO M 1973 ITA   MM35 1:54:41
834 1026 926 183 MARZI LUCA M 1963 ITA MARATONETI DEL TIGULLIO MM45 1:54:41
570 1027 101 9 SCUSSEL ALBERTINA F 1960 ITA GRUPPO CITTA' DI GENOVA SF 1:54:43
1125 1028 927 30 BALLESI CLAUDIO M 1951 ITA   MM60 1:54:45
213 1029 102 17 BONOMI KATIA F 1969 SUI   MF40 1:54:46
1012 1030 928 198 MARINO PASQUALE M 1967 ITA AVIS TORINO MM40 1:54:46
1324 1031 929 71 RIVAROLA PIETRO M 1955 ITA ASD PODISTICA PERALTO GENOVA MM55 1:54:47
948 1032 103 18 SAVIO STEFANIA F 1971 ITA ASD PODISTICA PERALTO GENOVA MF40 1:54:47
990 1033 930 159 FRANCESCONI LUCA M 1972 ITA   MM35 1:54:48
892 1034 931 105 PERGOLINI RAFFAELE M 1981 ITA   TM 1:54:49
1209 1035 932 184 TURRIN CARLO M 1963 ITA MARATONETI GENOVESI MM45 1:54:58
1467 1036 933 114 ALLENA CARLO M 1960 ITA   MM50 1:55:02
775 1037 934 115 ZAPPALA' ISIDORO M 1959 ITA   MM50 1:55:03
1155 1038 104 11 GIACOMAZZI ORNELLA F 1957 ITA ASS. DILET. CANAVESE 2005 MF50 1:55:08
835 1039 935 160 TURTURRO MATTEO M 1975 ITA   MM35 1:55:10
917 1040 936 106 LAVANGA PAOLO M 1979 ITA TEAM 2000 TORINO TM 1:55:13
1157 1041 937 107 CHIOZZI DAVIDE M 1985 ITA   TM 1:55:14
1018 1042 938 199 LANZA ANDREA M 1967 ITA CAMBIASO RISSO RUNNING TEAM GE MM40 1:55:14
696 1043 939 200 BAIGUERRA LUCIANO M 1967 ITA EUROATLETICA 2002 MM40 1:55:15
1329 1044 940 116 GNECCO GIOVANNI M 1959 ITA GENOA ATLETICA MM50 1:55:19
1410 1045 105 23 BAVOSI GIORGIA F 1972 ITA   MF35 1:55:20
1398 1046 941 185 PICCONE FRANCESCO M 1965 ITA DELTA SPEDIZIONI MM45 1:55:23
476 1047 942 201 BOLCHINI EZIO M 1968 ITA   MM40 1:55:24
1242 1048 943 186 OTTONELLO GIANCARLO M 1964 ITA A.S.D.  C.U.S. GENOVA MM45 1:55:27
1293 1049 944 202 RIGHETTI UMBERTO M 1967 ITA   MM40 1:55:32
1225 1050 945 108 MANGINI FEDERICO M 1983 ITA   TM 1:55:34
392 1051 946 117 ROTA IVAN M 1958 ITA   MM50 1:55:34
1164 1052 947 187 SCHENONE GIULIO M 1965 ITA   MM45 1:55:36
1139 1053 106 19 BRUNO MARIA TERESA F 1967 ITA G.S.D. SAI  FRECCE BIANCHE POD MF40 1:55:39
396 1054 948 203 MERLIN LUCA M 1970 ITA RUNNER VARESE MM40 1:55:44
1296 1055 949 204 PENNESI MASSIMILIANO M 1968 ITA   MM40 1:55:45
505 1056 107 20 BOSCO LUCIA F 1968 ITA CAMBIASO RISSO RUNNING TEAM GE MF40 1:55:47
397 1057 108 18 CALIARO ROSINA F 1963 ITA RUNNER VARESE MF45 1:55:47
590 1058 109 19 ALBESIANO ELENA F 1981 ITA   TF 1:55:51
1275 1059 950 31 GRILLO GIACOBBE M 1949 ITA ROAD RUNNERS CLUB MILANO MM60 1:55:56
246 1060 951 188 BRINGIOTTI MASSIMILIANO M 1966 ITA   MM45 1:55:57
913 1061 952 109 ANSALDI FABRIZIO M 1982 ITA   TM 1:55:58
1128 1062 953 32 MARINI ROBERTO M 1948 ITA G.A.U. GIOVANI AMICI UNITI MM60 1:55:58
416 1063 954 7 TASSELLO GIROLAMO M 1943 ITA ATL. VIGNATE MM65 1:56:01
943 1064 110 24 GIACONE ALEXA F 1975 ITA   MF35 1:56:02
730 1065 955 205 BARONI ALESSIO M 1971 ITA PODISTICA VALPOLCEVERA MM40 1:56:02
950 1066 111 21 MENINI VIRNA F 1968 ITA   MF40 1:56:02
2894 1067 956 206 SOLIDORO ADRIANO M 1969 ITA   MM40 1:56:03
1471 1068 957 72 MASSA ALESSANDRO M 1955 ITA   MM55 1:56:07
624 1069 958 118 MASTROCICCO FABRIZIO M 1959 ITA MARATONETI GENOVESI MM50 1:56:08
1239 1070 959 110 GAROFALO ANTONIO M 1986 ITA   TM 1:56:09
1064 1071 960 189 POLVANESI PIERLUIGI M 1963 ITA ASD POLISPORTIVA VIRTUS SESTRI MM45 1:56:09
1363 1072 961 190 CAPRA ENRICO M 1966 ITA   MM45 1:56:12
902 1073 112 20 EINAUDI IDA F 1977 ITA AVIS TORINO TF 1:56:15
1010 1074 962 207 RAVIOLO MARCO M 1971 ITA   MM40 1:56:21
485 1075 963 119 AIMASSO GIOVANNI M 1959 ITA TRIANGOLO SPORT LANGHE MONFERR MM50 1:56:24
1159 1076 964 120 CETTA PIETRO ANTONIO M 1960 ITA   MM50 1:56:25
1124 1077 965 33 BENEDETTI REMO M 1949 ITA ATLETICA VALLE SCRIVIA MM60 1:56:27
1172 1078 966 191 MAGNI MICHELE M 1963 ITA ATL. AMBROSIANA MM45 1:56:27
962 1079 113 12 BARTOLONE GIOVANNA F 1960 ITA AVIS TORINO MF50 1:56:28
272 1080 967 192 BERETTA IVAN M 1965 ITA   MM45 1:56:30
966 1081 114 5 BEASTY SUZANNE MARY F 1952 ITA PODISTICA VALPOLCEVERA MF55 1:56:31
273 1082 968 161 VILLA DAVIDE M 1973 ITA G.S. MONTEGARGNANO MM35 1:56:31
2892 1083 115 19 CANCELLIERI MARIELLA F 1964 ITA   MF45 1:56:32
1323 1084 116 20 COPPOLA GABRIELLA F 1965 ITA ASD PODISTICA PERALTO GENOVA MF45 1:56:32
354 1085 969 8 FURCAS ANTONIO M 1945 ITA G.S.D. BRANCALEONE  ASTI MM65 1:56:32
719 1086 117 25 CONTI RAFFAELLA F 1973 ITA   MF35 1:56:37
165 1087 970 208 CARPANETO BRUNO M 1967 ITA CAMBIASO RISSO RUNNING TEAM GE MM40 1:56:38
1294 1088 971 121 DELLA GODENZA RICCARDO M 1958 ITA   MM50 1:56:39
514 1089 118 13 NEGRI PATRIZIA F 1958 ITA ASS. PRO SAN PIETRO SANREMO MF50 1:56:41
1068 1090 972 193 DATURI VALERIO M 1964 ITA ASD PODISTICA PERALTO GENOVA MM45 1:56:45
186 1091 973 194 PUGLISI FRANCESCO M 1964 ITA A.S. DILETT. G.S.INDOMITA MM45 1:56:46
250 1092 119 22 DI BETTA ROSETTA F 1969 ITA POLISPORTIVA TORRILE MF40 1:56:48
944 1093 120 26 GLIORI ANTONELLA F 1974 ITA G.A.U. GIOVANI AMICI UNITI MF35 1:56:51
700 1094 974 162 MARUBBIO PAOLO M 1972 ITA   MM35 1:56:53
1488 1095 975 163 DRAGO STEFANO M 1974 ITA ASD PODISTICA PERALTO GENOVA MM35 1:56:53
1144 1096 976 122 BERGAMINI MARCELLO M 1959 ITA G.S.D. SAI  FRECCE BIANCHE POD MM50 1:56:55
703 1097 977 111 FALCO FABIO M 1978 ITA   TM 1:56:56
265 1098 978 195 PASQUALE PAOLO M 1966 ITA   MM45 1:56:58
1060 1099 979 196 DE SANTIS FABRIZIO M 1964 ITA G.P. AVIS PAVIA MM45 1:56:58
1384 1100 980 73 CAVALLETTI DARIO M 1954 ITA ASD PODISTICA PERALTO GENOVA MM55 1:56:59
174 1101 981 209 GUIDO FRANCESCO M 1968 ITA   MM40 1:57:02
38 1102 982 197 NAEF GIANPAOLO M 1964 ITA   MM45 1:57:09
764 1103 983 74 COLOMBO EDOARDO GIUSEPPE M 1952 ITA G.S. SAN MARTINO MM55 1:57:10
1306 1104 984 75 GIACCHETTA ACHILLE M 1956 ITA ATLETICA OVADESE ORMIG MM55 1:57:11
903 1105 121 21 ZANATTA SUSANNA F 1981 ITA   TF 1:57:19
989 1106 985 164 PINNA ANTONIO M 1974 ITA   MM35 1:57:21
254 1107 986 165 MILESI GIORGIO M 1974 ITA   MM35 1:57:23
805 1108 122 23 COPPINI CINZIA F 1968 ITA CEDAS LANCIA VERRONE MF40 1:57:24
568 1109 987 210 PELIZZA FABIO M 1968 ITA   MM40 1:57:30
390 1110 988 198 PIEMONTESE ENRICO M 1962 ITA ASD SISPORT GYM MM45 1:57:31
1150 1111 989 112 ARTIACO DAVIDE M 1979 ITA   TM 1:57:33
581 1112 990 123 PARODI FRANCO M 1961 ITA ATLETICA VALLE SCRIVIA MM50 1:57:35
1192 1113 991 124 SIGNAROLDI MARINO M 1961 ITA PODISTI DEL GOLFO PARADISO MM50 1:57:37
1405 1114 992 113 HYKA SHEPETIM M 1983 ITA   TM 1:57:37
85 1115 993 114 GAIAZZI ALESSANDRO M 1977 ITA   TM 1:57:41
53 1116 123 27 NALBONE ANTONELLA F 1972 ITA ASD ALBENGA RUNNERS MF35 1:57:43
1235 1117 124 28 CALCAGNO ELENA F 1973 ITA   MF35 1:57:48
519 1118 125 21 CONSIGLIERE ANGELA F 1964 ITA ATLETICA BRESCIA MARATHON MF45 1:57:49
438 1119 994 125 RIDOLFI RICCARDO M 1957 ITA POL. ARENZANO SEZ. ATLETICA MM50 1:57:52
437 1120 126 14 GIOVANNONI PINA F 1960 ITA PODISTICA MELE MF50 1:57:52
1206 1121 127 22 TORTAROLO LARA F 1978 ITA   TF 1:57:52
1310 1122 995 199 FORNO STEFANO M 1963 ITA ATLETICA 2 PERLE MM45 1:58:02
1215 1123 996 76 PUIE' BATTISTA M 1953 ITA   MM55 1:58:07
1227 1124 997 200 BENASSI ROBERTO M 1963 ITA GRUPPO CITTA' DI GENOVA MM45 1:58:07
661 1125 998 77 TORTI DANILO M 1955 ITA ATL. IRIENSE VOGHERA MM55 1:58:16
301 1126 999 201 MASSARINO FABIO M 1963 ITA CAMBIASO RISSO RUNNING TEAM GE MM45 1:58:18
1433 1127 1000 166 DARDANO MASSIMO M 1973 ITA   MM35 1:58:19
1268 1128 128 22 DELUCCHI NICOLETTA F 1966 ITA MARATONETI DEL TIGULLIO MF45 1:58:24
112 1129 1001 202 COLLEONI ROSARIO M 1964 ITA G.P. AVIS PAVIA MM45 1:58:24
1016 1130 1002 211 GAETA VINCENZO M 1968 ITA ASD PODISTICA PERALTO GENOVA MM40 1:58:24
1046 1131 1003 203 BALDINI FERDINANDO M 1966 ITA ASD PODISTICA PERALTO GENOVA MM45 1:58:26
798 1132 1004 78 ATZORI RAFFAELE M 1953 ITA POL. CORNIGLIANO 79 DILETT. MM55 1:58:29
55 1133 1005 126 BOCCHINO MAURO M 1961 ITA   MM50 1:58:33
979 1134 1006 167 BARATELLA DAVIDE M 1972 ITA AVIS TORINO MM35 1:58:37
931 1135 1007 9 GNECCO NICOLA M 1991 ITA   - 1:58:41
182 1136 1008 212 LO PRESTI CLAUDIO M 1970 ITA A.S. DILETT. G.S.INDOMITA MM40 1:58:42
2893 1137 129 23 MASOERO MARIA CARLA F 1964 ITA   MF45 1:58:43
276 1138 1009 213 GIANZI ANDREA M 1968 ITA G.P. AVIS PAVIA MM40 1:58:45
456 1139 1010 115 PAGANI PIETRO M 1979 ITA   TM 1:58:48
1486 1140